<?xml version="1.0" encoding="UTF-8" standalone="no" ?>
<gpx xmlns="http://www.topografix.com/GPX/1/1" xmlns:xsi="http://www.w3.org/2001/XMLSchema-instance" xsi:schemaLocation="http://www.topografix.com/GPX/1/1 http://www.topografix.com/GPX/1/1/gpx.xsd" version="1.1" creator="VisuGPX - https://www.visugpx.com">
  <metadata>
    <name>Autour de Bais par les Batailles</name>
    <desc><![CDATA[Profitant du soleil revenu, je suis parti vers le haut de la colline, d\'où j\'ai pu apercevoir de nombreuses éoliennes... en fonctionnement, ou en chantier.]]></desc>
  </metadata>
  <trk>
    <name><![CDATA[Autour de Bais par les Batailles_1]]></name>
    <trkseg>
      <trkpt lat="48.25218" lon="-0.3599">
        <ele>198.2</ele>
        <time>2012-10-28T09:12:30Z</time>
      </trkpt>
      <trkpt lat="48.25218" lon="-0.3599">
        <ele>285.5</ele>
        <time>2012-10-28T09:12:34Z</time>
      </trkpt>
      <trkpt lat="48.25218" lon="-0.35999">
        <ele>282.5</ele>
        <time>2012-10-28T09:12:42Z</time>
      </trkpt>
      <trkpt lat="48.25218" lon="-0.36006">
        <ele>281.5</ele>
        <time>2012-10-28T09:12:46Z</time>
      </trkpt>
      <trkpt lat="48.25211" lon="-0.36024">
        <ele>279.5</ele>
        <time>2012-10-28T09:12:58Z</time>
      </trkpt>
      <trkpt lat="48.25201" lon="-0.36045">
        <ele>277.5</ele>
        <time>2012-10-28T09:13:10Z</time>
      </trkpt>
      <trkpt lat="48.25199" lon="-0.36048">
        <ele>277</ele>
        <time>2012-10-28T09:13:12Z</time>
      </trkpt>
      <trkpt lat="48.25192" lon="-0.36056">
        <ele>277</ele>
        <time>2012-10-28T09:13:20Z</time>
      </trkpt>
      <trkpt lat="48.2518" lon="-0.36041">
        <ele>276</ele>
        <time>2012-10-28T09:13:36Z</time>
      </trkpt>
      <trkpt lat="48.2517" lon="-0.36025">
        <ele>275.5</ele>
        <time>2012-10-28T09:13:44Z</time>
      </trkpt>
      <trkpt lat="48.25164" lon="-0.36019">
        <ele>275.5</ele>
        <time>2012-10-28T09:13:46Z</time>
      </trkpt>
      <trkpt lat="48.25161" lon="-0.36013">
        <ele>275.5</ele>
        <time>2012-10-28T09:13:50Z</time>
      </trkpt>
      <trkpt lat="48.2515" lon="-0.35998">
        <ele>274.5</ele>
        <time>2012-10-28T09:14:04Z</time>
      </trkpt>
      <trkpt lat="48.25144" lon="-0.35994">
        <ele>274.5</ele>
        <time>2012-10-28T09:14:08Z</time>
      </trkpt>
      <trkpt lat="48.25139" lon="-0.3598">
        <ele>274.5</ele>
        <time>2012-10-28T09:14:22Z</time>
      </trkpt>
      <trkpt lat="48.2512" lon="-0.3596">
        <ele>274.5</ele>
        <time>2012-10-28T09:14:36Z</time>
      </trkpt>
      <trkpt lat="48.25104" lon="-0.35956">
        <ele>274.5</ele>
        <time>2012-10-28T09:14:48Z</time>
      </trkpt>
      <trkpt lat="48.25101" lon="-0.35946">
        <ele>274.5</ele>
        <time>2012-10-28T09:14:58Z</time>
      </trkpt>
      <trkpt lat="48.25097" lon="-0.35924">
        <ele>274</ele>
        <time>2012-10-28T09:15:02Z</time>
      </trkpt>
      <trkpt lat="48.25092" lon="-0.35903">
        <ele>273.5</ele>
        <time>2012-10-28T09:15:10Z</time>
      </trkpt>
      <trkpt lat="48.25086" lon="-0.35888">
        <ele>273.5</ele>
        <time>2012-10-28T09:15:20Z</time>
      </trkpt>
      <trkpt lat="48.25066" lon="-0.35874">
        <ele>273</ele>
        <time>2012-10-28T09:15:34Z</time>
      </trkpt>
      <trkpt lat="48.25053" lon="-0.35863">
        <ele>271.5</ele>
        <time>2012-10-28T09:15:46Z</time>
      </trkpt>
      <trkpt lat="48.25044" lon="-0.35861">
        <ele>271.5</ele>
        <time>2012-10-28T09:15:48Z</time>
      </trkpt>
      <trkpt lat="48.25036" lon="-0.35849">
        <ele>271</ele>
        <time>2012-10-28T09:15:54Z</time>
      </trkpt>
      <trkpt lat="48.25034" lon="-0.35846">
        <ele>271</ele>
        <time>2012-10-28T09:15:56Z</time>
      </trkpt>
      <trkpt lat="48.25028" lon="-0.3584">
        <ele>269</ele>
        <time>2012-10-28T09:16:12Z</time>
      </trkpt>
      <trkpt lat="48.25015" lon="-0.35832">
        <ele>267.5</ele>
        <time>2012-10-28T09:16:24Z</time>
      </trkpt>
      <trkpt lat="48.25001" lon="-0.35844">
        <ele>267.5</ele>
        <time>2012-10-28T09:16:38Z</time>
      </trkpt>
      <trkpt lat="48.24985" lon="-0.35849">
        <ele>266.5</ele>
        <time>2012-10-28T09:16:50Z</time>
      </trkpt>
      <trkpt lat="48.24979" lon="-0.3585">
        <ele>266</ele>
        <time>2012-10-28T09:16:52Z</time>
      </trkpt>
      <trkpt lat="48.24968" lon="-0.35856">
        <ele>260.5</ele>
        <time>2012-10-28T09:17:04Z</time>
      </trkpt>
      <trkpt lat="48.24953" lon="-0.35839">
        <ele>257.5</ele>
        <time>2012-10-28T09:17:16Z</time>
      </trkpt>
      <trkpt lat="48.24941" lon="-0.35815">
        <ele>255</ele>
        <time>2012-10-28T09:17:26Z</time>
      </trkpt>
      <trkpt lat="48.24931" lon="-0.3579">
        <ele>254</ele>
        <time>2012-10-28T09:17:38Z</time>
      </trkpt>
      <trkpt lat="48.24914" lon="-0.35779">
        <ele>253</ele>
        <time>2012-10-28T09:17:48Z</time>
      </trkpt>
      <trkpt lat="48.24923" lon="-0.35753">
        <ele>251.5</ele>
        <time>2012-10-28T09:18:06Z</time>
      </trkpt>
      <trkpt lat="48.24924" lon="-0.35732">
        <ele>251.5</ele>
        <time>2012-10-28T09:18:14Z</time>
      </trkpt>
      <trkpt lat="48.24929" lon="-0.3572">
        <ele>252</ele>
        <time>2012-10-28T09:18:20Z</time>
      </trkpt>
      <trkpt lat="48.24934" lon="-0.3571">
        <ele>252</ele>
        <time>2012-10-28T09:18:24Z</time>
      </trkpt>
      <trkpt lat="48.24936" lon="-0.35702">
        <ele>252</ele>
        <time>2012-10-28T09:18:28Z</time>
      </trkpt>
      <trkpt lat="48.24938" lon="-0.3568">
        <ele>252</ele>
        <time>2012-10-28T09:18:40Z</time>
      </trkpt>
      <trkpt lat="48.24942" lon="-0.35662">
        <ele>252</ele>
        <time>2012-10-28T09:18:50Z</time>
      </trkpt>
      <trkpt lat="48.24944" lon="-0.35656">
        <ele>252</ele>
        <time>2012-10-28T09:18:54Z</time>
      </trkpt>
      <trkpt lat="48.24944" lon="-0.35643">
        <ele>252.5</ele>
        <time>2012-10-28T09:19:00Z</time>
      </trkpt>
      <trkpt lat="48.24943" lon="-0.35637">
        <ele>252.5</ele>
        <time>2012-10-28T09:19:10Z</time>
      </trkpt>
      <trkpt lat="48.24951" lon="-0.35613">
        <ele>253</ele>
        <time>2012-10-28T09:19:22Z</time>
      </trkpt>
      <trkpt lat="48.24953" lon="-0.35603">
        <ele>253</ele>
        <time>2012-10-28T09:19:30Z</time>
      </trkpt>
      <trkpt lat="48.24952" lon="-0.35594">
        <ele>253.5</ele>
        <time>2012-10-28T09:19:32Z</time>
      </trkpt>
      <trkpt lat="48.24959" lon="-0.35572">
        <ele>250</ele>
        <time>2012-10-28T09:19:44Z</time>
      </trkpt>
      <trkpt lat="48.24966" lon="-0.35559">
        <ele>247</ele>
        <time>2012-10-28T09:19:56Z</time>
      </trkpt>
      <trkpt lat="48.2497" lon="-0.35553">
        <ele>245</ele>
        <time>2012-10-28T09:20:00Z</time>
      </trkpt>
      <trkpt lat="48.24969" lon="-0.35541">
        <ele>254</ele>
        <time>2012-10-28T09:20:06Z</time>
      </trkpt>
      <trkpt lat="48.24974" lon="-0.35534">
        <ele>255</ele>
        <time>2012-10-28T09:20:12Z</time>
      </trkpt>
      <trkpt lat="48.24982" lon="-0.35521">
        <ele>255.5</ele>
        <time>2012-10-28T09:20:22Z</time>
      </trkpt>
      <trkpt lat="48.24984" lon="-0.35514">
        <ele>256.5</ele>
        <time>2012-10-28T09:20:26Z</time>
      </trkpt>
      <trkpt lat="48.2499" lon="-0.35497">
        <ele>257.5</ele>
        <time>2012-10-28T09:20:34Z</time>
      </trkpt>
      <trkpt lat="48.24997" lon="-0.35486">
        <ele>259.5</ele>
        <time>2012-10-28T09:20:44Z</time>
      </trkpt>
      <trkpt lat="48.25004" lon="-0.35478">
        <ele>260.5</ele>
        <time>2012-10-28T09:20:52Z</time>
      </trkpt>
      <trkpt lat="48.25009" lon="-0.35474">
        <ele>261</ele>
        <time>2012-10-28T09:20:56Z</time>
      </trkpt>
      <trkpt lat="48.25015" lon="-0.35463">
        <ele>261.5</ele>
        <time>2012-10-28T09:21:02Z</time>
      </trkpt>
      <trkpt lat="48.25017" lon="-0.35457">
        <ele>261.5</ele>
        <time>2012-10-28T09:21:04Z</time>
      </trkpt>
      <trkpt lat="48.25023" lon="-0.3545">
        <ele>262.5</ele>
        <time>2012-10-28T09:21:10Z</time>
      </trkpt>
      <trkpt lat="48.25032" lon="-0.3544">
        <ele>263</ele>
        <time>2012-10-28T09:21:20Z</time>
      </trkpt>
      <trkpt lat="48.25038" lon="-0.35434">
        <ele>263</ele>
        <time>2012-10-28T09:21:26Z</time>
      </trkpt>
      <trkpt lat="48.25041" lon="-0.35431">
        <ele>263.5</ele>
        <time>2012-10-28T09:21:30Z</time>
      </trkpt>
      <trkpt lat="48.25043" lon="-0.35429">
        <ele>263.5</ele>
        <time>2012-10-28T09:21:32Z</time>
      </trkpt>
      <trkpt lat="48.25049" lon="-0.35426">
        <ele>263</ele>
        <time>2012-10-28T09:21:36Z</time>
      </trkpt>
      <trkpt lat="48.25055" lon="-0.35424">
        <ele>263.5</ele>
        <time>2012-10-28T09:21:42Z</time>
      </trkpt>
      <trkpt lat="48.25059" lon="-0.3542">
        <ele>263.5</ele>
        <time>2012-10-28T09:21:46Z</time>
      </trkpt>
      <trkpt lat="48.25063" lon="-0.35414">
        <ele>263.5</ele>
        <time>2012-10-28T09:21:50Z</time>
      </trkpt>
      <trkpt lat="48.25067" lon="-0.35409">
        <ele>263.5</ele>
        <time>2012-10-28T09:21:54Z</time>
      </trkpt>
      <trkpt lat="48.25068" lon="-0.35406">
        <ele>264</ele>
        <time>2012-10-28T09:21:56Z</time>
      </trkpt>
      <trkpt lat="48.25073" lon="-0.35403">
        <ele>264.5</ele>
        <time>2012-10-28T09:22:02Z</time>
      </trkpt>
      <trkpt lat="48.25081" lon="-0.35396">
        <ele>265</ele>
        <time>2012-10-28T09:22:10Z</time>
      </trkpt>
      <trkpt lat="48.25086" lon="-0.35387">
        <ele>265</ele>
        <time>2012-10-28T09:22:14Z</time>
      </trkpt>
      <trkpt lat="48.25089" lon="-0.35382">
        <ele>265.5</ele>
        <time>2012-10-28T09:22:16Z</time>
      </trkpt>
      <trkpt lat="48.2509" lon="-0.35379">
        <ele>265.5</ele>
        <time>2012-10-28T09:22:18Z</time>
      </trkpt>
      <trkpt lat="48.25096" lon="-0.35367">
        <ele>266</ele>
        <time>2012-10-28T09:22:24Z</time>
      </trkpt>
      <trkpt lat="48.251" lon="-0.35358">
        <ele>266.5</ele>
        <time>2012-10-28T09:22:28Z</time>
      </trkpt>
      <trkpt lat="48.25103" lon="-0.35352">
        <ele>267</ele>
        <time>2012-10-28T09:22:30Z</time>
      </trkpt>
      <trkpt lat="48.25108" lon="-0.3534">
        <ele>267.5</ele>
        <time>2012-10-28T09:22:36Z</time>
      </trkpt>
      <trkpt lat="48.25114" lon="-0.35333">
        <ele>266</ele>
        <time>2012-10-28T09:22:44Z</time>
      </trkpt>
      <trkpt lat="48.25118" lon="-0.35329">
        <ele>266.5</ele>
        <time>2012-10-28T09:22:50Z</time>
      </trkpt>
      <trkpt lat="48.25124" lon="-0.35321">
        <ele>266</ele>
        <time>2012-10-28T09:22:58Z</time>
      </trkpt>
      <trkpt lat="48.25126" lon="-0.35317">
        <ele>266.5</ele>
        <time>2012-10-28T09:23:02Z</time>
      </trkpt>
      <trkpt lat="48.25131" lon="-0.35307">
        <ele>266.5</ele>
        <time>2012-10-28T09:23:10Z</time>
      </trkpt>
      <trkpt lat="48.25142" lon="-0.35288">
        <ele>265.5</ele>
        <time>2012-10-28T09:23:26Z</time>
      </trkpt>
      <trkpt lat="48.25147" lon="-0.35281">
        <ele>266</ele>
        <time>2012-10-28T09:23:34Z</time>
      </trkpt>
      <trkpt lat="48.2515" lon="-0.35274">
        <ele>267</ele>
        <time>2012-10-28T09:23:38Z</time>
      </trkpt>
      <trkpt lat="48.25153" lon="-0.3526">
        <ele>268</ele>
        <time>2012-10-28T09:23:44Z</time>
      </trkpt>
      <trkpt lat="48.25155" lon="-0.35254">
        <ele>268.5</ele>
        <time>2012-10-28T09:23:46Z</time>
      </trkpt>
      <trkpt lat="48.25159" lon="-0.35249">
        <ele>268</ele>
        <time>2012-10-28T09:23:50Z</time>
      </trkpt>
      <trkpt lat="48.25161" lon="-0.35246">
        <ele>268</ele>
        <time>2012-10-28T09:23:52Z</time>
      </trkpt>
      <trkpt lat="48.25165" lon="-0.35239">
        <ele>268.5</ele>
        <time>2012-10-28T09:23:58Z</time>
      </trkpt>
      <trkpt lat="48.25169" lon="-0.35225">
        <ele>271</ele>
        <time>2012-10-28T09:24:06Z</time>
      </trkpt>
      <trkpt lat="48.25175" lon="-0.35215">
        <ele>272</ele>
        <time>2012-10-28T09:24:14Z</time>
      </trkpt>
      <trkpt lat="48.25176" lon="-0.35212">
        <ele>272</ele>
        <time>2012-10-28T09:24:16Z</time>
      </trkpt>
      <trkpt lat="48.25179" lon="-0.35208">
        <ele>272</ele>
        <time>2012-10-28T09:24:18Z</time>
      </trkpt>
      <trkpt lat="48.25182" lon="-0.352">
        <ele>272.5</ele>
        <time>2012-10-28T09:24:28Z</time>
      </trkpt>
      <trkpt lat="48.25193" lon="-0.35177">
        <ele>273</ele>
        <time>2012-10-28T09:24:40Z</time>
      </trkpt>
      <trkpt lat="48.25196" lon="-0.3517">
        <ele>273.5</ele>
        <time>2012-10-28T09:24:44Z</time>
      </trkpt>
      <trkpt lat="48.252" lon="-0.35163">
        <ele>274.5</ele>
        <time>2012-10-28T09:24:50Z</time>
      </trkpt>
      <trkpt lat="48.25208" lon="-0.35153">
        <ele>275.5</ele>
        <time>2012-10-28T09:24:58Z</time>
      </trkpt>
      <trkpt lat="48.2522" lon="-0.35135">
        <ele>277</ele>
        <time>2012-10-28T09:25:12Z</time>
      </trkpt>
      <trkpt lat="48.2523" lon="-0.35122">
        <ele>277</ele>
        <time>2012-10-28T09:25:22Z</time>
      </trkpt>
      <trkpt lat="48.25232" lon="-0.35119">
        <ele>277.5</ele>
        <time>2012-10-28T09:25:24Z</time>
      </trkpt>
      <trkpt lat="48.25234" lon="-0.35117">
        <ele>277.5</ele>
        <time>2012-10-28T09:25:26Z</time>
      </trkpt>
      <trkpt lat="48.25242" lon="-0.3511">
        <ele>278</ele>
        <time>2012-10-28T09:25:34Z</time>
      </trkpt>
      <trkpt lat="48.25246" lon="-0.35102">
        <ele>278</ele>
        <time>2012-10-28T09:25:38Z</time>
      </trkpt>
      <trkpt lat="48.25256" lon="-0.35085">
        <ele>278.5</ele>
        <time>2012-10-28T09:25:50Z</time>
      </trkpt>
      <trkpt lat="48.25268" lon="-0.35074">
        <ele>278.5</ele>
        <time>2012-10-28T09:26:00Z</time>
      </trkpt>
      <trkpt lat="48.25273" lon="-0.35069">
        <ele>279</ele>
        <time>2012-10-28T09:26:04Z</time>
      </trkpt>
      <trkpt lat="48.25281" lon="-0.35059">
        <ele>279.5</ele>
        <time>2012-10-28T09:26:12Z</time>
      </trkpt>
      <trkpt lat="48.25286" lon="-0.35057">
        <ele>279.5</ele>
        <time>2012-10-28T09:26:16Z</time>
      </trkpt>
      <trkpt lat="48.25301" lon="-0.35045">
        <ele>280.5</ele>
        <time>2012-10-28T09:26:28Z</time>
      </trkpt>
      <trkpt lat="48.25309" lon="-0.35044">
        <ele>281.5</ele>
        <time>2012-10-28T09:26:38Z</time>
      </trkpt>
      <trkpt lat="48.25323" lon="-0.35035">
        <ele>282</ele>
        <time>2012-10-28T09:26:52Z</time>
      </trkpt>
      <trkpt lat="48.2533" lon="-0.35035">
        <ele>282.5</ele>
        <time>2012-10-28T09:26:58Z</time>
      </trkpt>
      <trkpt lat="48.25338" lon="-0.35029">
        <ele>283.5</ele>
        <time>2012-10-28T09:27:04Z</time>
      </trkpt>
      <trkpt lat="48.25343" lon="-0.35022">
        <ele>283.5</ele>
        <time>2012-10-28T09:27:10Z</time>
      </trkpt>
      <trkpt lat="48.25353" lon="-0.35017">
        <ele>284</ele>
        <time>2012-10-28T09:27:20Z</time>
      </trkpt>
      <trkpt lat="48.25364" lon="-0.3501">
        <ele>284.5</ele>
        <time>2012-10-28T09:27:32Z</time>
      </trkpt>
      <trkpt lat="48.2538" lon="-0.35004">
        <ele>284</ele>
        <time>2012-10-28T09:27:44Z</time>
      </trkpt>
      <trkpt lat="48.25387" lon="-0.35003">
        <ele>285</ele>
        <time>2012-10-28T09:27:48Z</time>
      </trkpt>
      <trkpt lat="48.25394" lon="-0.34995">
        <ele>286.5</ele>
        <time>2012-10-28T09:27:52Z</time>
      </trkpt>
      <trkpt lat="48.25402" lon="-0.34988">
        <ele>286.5</ele>
        <time>2012-10-28T09:27:56Z</time>
      </trkpt>
      <trkpt lat="48.25407" lon="-0.34987">
        <ele>288</ele>
        <time>2012-10-28T09:28:00Z</time>
      </trkpt>
      <trkpt lat="48.25412" lon="-0.34976">
        <ele>288</ele>
        <time>2012-10-28T09:28:04Z</time>
      </trkpt>
      <trkpt lat="48.25418" lon="-0.34968">
        <ele>289</ele>
        <time>2012-10-28T09:28:10Z</time>
      </trkpt>
      <trkpt lat="48.25425" lon="-0.34964">
        <ele>290</ele>
        <time>2012-10-28T09:28:16Z</time>
      </trkpt>
      <trkpt lat="48.25429" lon="-0.34955">
        <ele>290</ele>
        <time>2012-10-28T09:28:20Z</time>
      </trkpt>
      <trkpt lat="48.25431" lon="-0.34951">
        <ele>290</ele>
        <time>2012-10-28T09:28:22Z</time>
      </trkpt>
      <trkpt lat="48.25437" lon="-0.34941">
        <ele>290.5</ele>
        <time>2012-10-28T09:28:28Z</time>
      </trkpt>
      <trkpt lat="48.25443" lon="-0.34937">
        <ele>291</ele>
        <time>2012-10-28T09:28:34Z</time>
      </trkpt>
      <trkpt lat="48.25446" lon="-0.34934">
        <ele>291.5</ele>
        <time>2012-10-28T09:28:38Z</time>
      </trkpt>
      <trkpt lat="48.25451" lon="-0.3494">
        <ele>291</ele>
        <time>2012-10-28T09:28:50Z</time>
      </trkpt>
      <trkpt lat="48.25456" lon="-0.34935">
        <ele>290.5</ele>
        <time>2012-10-28T09:28:54Z</time>
      </trkpt>
      <trkpt lat="48.25462" lon="-0.34932">
        <ele>291</ele>
        <time>2012-10-28T09:28:58Z</time>
      </trkpt>
      <trkpt lat="48.25468" lon="-0.34921">
        <ele>292</ele>
        <time>2012-10-28T09:29:04Z</time>
      </trkpt>
      <trkpt lat="48.25472" lon="-0.34915">
        <ele>292.5</ele>
        <time>2012-10-28T09:29:08Z</time>
      </trkpt>
      <trkpt lat="48.25476" lon="-0.34909">
        <ele>293</ele>
        <time>2012-10-28T09:29:12Z</time>
      </trkpt>
      <trkpt lat="48.25483" lon="-0.34899">
        <ele>294.5</ele>
        <time>2012-10-28T09:29:24Z</time>
      </trkpt>
      <trkpt lat="48.25488" lon="-0.34894">
        <ele>295</ele>
        <time>2012-10-28T09:29:30Z</time>
      </trkpt>
      <trkpt lat="48.25493" lon="-0.34886">
        <ele>295.5</ele>
        <time>2012-10-28T09:29:34Z</time>
      </trkpt>
      <trkpt lat="48.25495" lon="-0.34883">
        <ele>295.5</ele>
        <time>2012-10-28T09:29:36Z</time>
      </trkpt>
      <trkpt lat="48.25501" lon="-0.34876">
        <ele>295.5</ele>
        <time>2012-10-28T09:29:42Z</time>
      </trkpt>
      <trkpt lat="48.25507" lon="-0.34874">
        <ele>296</ele>
        <time>2012-10-28T09:29:48Z</time>
      </trkpt>
      <trkpt lat="48.25514" lon="-0.34863">
        <ele>296.5</ele>
        <time>2012-10-28T09:29:54Z</time>
      </trkpt>
      <trkpt lat="48.25516" lon="-0.3486">
        <ele>297</ele>
        <time>2012-10-28T09:29:56Z</time>
      </trkpt>
      <trkpt lat="48.25522" lon="-0.34857">
        <ele>297</ele>
        <time>2012-10-28T09:30:02Z</time>
      </trkpt>
      <trkpt lat="48.2553" lon="-0.34853">
        <ele>297</ele>
        <time>2012-10-28T09:30:10Z</time>
      </trkpt>
      <trkpt lat="48.25534" lon="-0.34848">
        <ele>297</ele>
        <time>2012-10-28T09:30:14Z</time>
      </trkpt>
      <trkpt lat="48.2554" lon="-0.34842">
        <ele>297.5</ele>
        <time>2012-10-28T09:30:20Z</time>
      </trkpt>
      <trkpt lat="48.25548" lon="-0.34834">
        <ele>296</ele>
        <time>2012-10-28T09:30:28Z</time>
      </trkpt>
      <trkpt lat="48.25555" lon="-0.34827">
        <ele>297</ele>
        <time>2012-10-28T09:30:34Z</time>
      </trkpt>
      <trkpt lat="48.2556" lon="-0.34822">
        <ele>297.5</ele>
        <time>2012-10-28T09:30:42Z</time>
      </trkpt>
      <trkpt lat="48.25565" lon="-0.34811">
        <ele>298.5</ele>
        <time>2012-10-28T09:30:48Z</time>
      </trkpt>
      <trkpt lat="48.25569" lon="-0.34807">
        <ele>299.5</ele>
        <time>2012-10-28T09:30:52Z</time>
      </trkpt>
      <trkpt lat="48.25573" lon="-0.34804">
        <ele>300</ele>
        <time>2012-10-28T09:30:56Z</time>
      </trkpt>
      <trkpt lat="48.25582" lon="-0.34791">
        <ele>301.5</ele>
        <time>2012-10-28T09:31:04Z</time>
      </trkpt>
      <trkpt lat="48.25583" lon="-0.34788">
        <ele>301.5</ele>
        <time>2012-10-28T09:31:06Z</time>
      </trkpt>
      <trkpt lat="48.25587" lon="-0.34783">
        <ele>302</ele>
        <time>2012-10-28T09:31:10Z</time>
      </trkpt>
      <trkpt lat="48.25593" lon="-0.34778">
        <ele>302.5</ele>
        <time>2012-10-28T09:31:16Z</time>
      </trkpt>
      <trkpt lat="48.25598" lon="-0.3477">
        <ele>303</ele>
        <time>2012-10-28T09:31:22Z</time>
      </trkpt>
      <trkpt lat="48.25603" lon="-0.34762">
        <ele>304</ele>
        <time>2012-10-28T09:31:28Z</time>
      </trkpt>
      <trkpt lat="48.25606" lon="-0.34757">
        <ele>304.5</ele>
        <time>2012-10-28T09:31:32Z</time>
      </trkpt>
      <trkpt lat="48.25609" lon="-0.34748">
        <ele>305</ele>
        <time>2012-10-28T09:31:36Z</time>
      </trkpt>
      <trkpt lat="48.25617" lon="-0.34726">
        <ele>306</ele>
        <time>2012-10-28T09:31:50Z</time>
      </trkpt>
      <trkpt lat="48.25623" lon="-0.34709">
        <ele>307</ele>
        <time>2012-10-28T09:32:00Z</time>
      </trkpt>
      <trkpt lat="48.25625" lon="-0.347">
        <ele>307.5</ele>
        <time>2012-10-28T09:32:04Z</time>
      </trkpt>
      <trkpt lat="48.25627" lon="-0.34692">
        <ele>307.5</ele>
        <time>2012-10-28T09:32:08Z</time>
      </trkpt>
      <trkpt lat="48.25629" lon="-0.34688">
        <ele>307.5</ele>
        <time>2012-10-28T09:32:10Z</time>
      </trkpt>
      <trkpt lat="48.2563" lon="-0.34679">
        <ele>308</ele>
        <time>2012-10-28T09:32:14Z</time>
      </trkpt>
      <trkpt lat="48.25631" lon="-0.34674">
        <ele>308</ele>
        <time>2012-10-28T09:32:16Z</time>
      </trkpt>
      <trkpt lat="48.25632" lon="-0.34669">
        <ele>308.5</ele>
        <time>2012-10-28T09:32:18Z</time>
      </trkpt>
      <trkpt lat="48.25635" lon="-0.34658">
        <ele>309</ele>
        <time>2012-10-28T09:32:24Z</time>
      </trkpt>
      <trkpt lat="48.25636" lon="-0.34653">
        <ele>309</ele>
        <time>2012-10-28T09:32:28Z</time>
      </trkpt>
      <trkpt lat="48.25642" lon="-0.34633">
        <ele>309.5</ele>
        <time>2012-10-28T09:32:40Z</time>
      </trkpt>
      <trkpt lat="48.25644" lon="-0.34624">
        <ele>310</ele>
        <time>2012-10-28T09:32:46Z</time>
      </trkpt>
      <trkpt lat="48.25645" lon="-0.3462">
        <ele>310</ele>
        <time>2012-10-28T09:32:48Z</time>
      </trkpt>
      <trkpt lat="48.25646" lon="-0.34613">
        <ele>310</ele>
        <time>2012-10-28T09:32:52Z</time>
      </trkpt>
      <trkpt lat="48.25647" lon="-0.3461">
        <ele>310.5</ele>
        <time>2012-10-28T09:32:54Z</time>
      </trkpt>
      <trkpt lat="48.25649" lon="-0.34603">
        <ele>310.5</ele>
        <time>2012-10-28T09:32:58Z</time>
      </trkpt>
      <trkpt lat="48.25651" lon="-0.34595">
        <ele>309</ele>
        <time>2012-10-28T09:33:02Z</time>
      </trkpt>
      <trkpt lat="48.25656" lon="-0.34584">
        <ele>310</ele>
        <time>2012-10-28T09:33:10Z</time>
      </trkpt>
      <trkpt lat="48.25662" lon="-0.34574">
        <ele>308</ele>
        <time>2012-10-28T09:33:18Z</time>
      </trkpt>
      <trkpt lat="48.25666" lon="-0.34565">
        <ele>307</ele>
        <time>2012-10-28T09:33:24Z</time>
      </trkpt>
      <trkpt lat="48.25668" lon="-0.34551">
        <ele>308</ele>
        <time>2012-10-28T09:33:30Z</time>
      </trkpt>
      <trkpt lat="48.25669" lon="-0.34545">
        <ele>307.5</ele>
        <time>2012-10-28T09:33:34Z</time>
      </trkpt>
      <trkpt lat="48.2567" lon="-0.34541">
        <ele>306.5</ele>
        <time>2012-10-28T09:33:36Z</time>
      </trkpt>
      <trkpt lat="48.25675" lon="-0.34525">
        <ele>304.5</ele>
        <time>2012-10-28T09:33:48Z</time>
      </trkpt>
      <trkpt lat="48.25682" lon="-0.34509">
        <ele>306.5</ele>
        <time>2012-10-28T09:33:58Z</time>
      </trkpt>
      <trkpt lat="48.25686" lon="-0.34507">
        <ele>308</ele>
        <time>2012-10-28T09:34:04Z</time>
      </trkpt>
      <trkpt lat="48.25693" lon="-0.34508">
        <ele>309</ele>
        <time>2012-10-28T09:34:12Z</time>
      </trkpt>
      <trkpt lat="48.25704" lon="-0.34516">
        <ele>309.5</ele>
        <time>2012-10-28T09:34:22Z</time>
      </trkpt>
      <trkpt lat="48.25708" lon="-0.3452">
        <ele>309.5</ele>
        <time>2012-10-28T09:34:26Z</time>
      </trkpt>
      <trkpt lat="48.25714" lon="-0.34526">
        <ele>310</ele>
        <time>2012-10-28T09:34:32Z</time>
      </trkpt>
      <trkpt lat="48.2572" lon="-0.34528">
        <ele>308</ele>
        <time>2012-10-28T09:34:36Z</time>
      </trkpt>
      <trkpt lat="48.25728" lon="-0.34531">
        <ele>308</ele>
        <time>2012-10-28T09:34:46Z</time>
      </trkpt>
      <trkpt lat="48.25731" lon="-0.34537">
        <ele>308.5</ele>
        <time>2012-10-28T09:34:50Z</time>
      </trkpt>
      <trkpt lat="48.2574" lon="-0.34539">
        <ele>309</ele>
        <time>2012-10-28T09:34:58Z</time>
      </trkpt>
      <trkpt lat="48.25744" lon="-0.34543">
        <ele>308.5</ele>
        <time>2012-10-28T09:35:02Z</time>
      </trkpt>
      <trkpt lat="48.25759" lon="-0.34552">
        <ele>307.5</ele>
        <time>2012-10-28T09:35:16Z</time>
      </trkpt>
      <trkpt lat="48.25768" lon="-0.34559">
        <ele>307</ele>
        <time>2012-10-28T09:35:26Z</time>
      </trkpt>
      <trkpt lat="48.2577" lon="-0.34561">
        <ele>307</ele>
        <time>2012-10-28T09:35:28Z</time>
      </trkpt>
      <trkpt lat="48.25782" lon="-0.34567">
        <ele>307</ele>
        <time>2012-10-28T09:35:36Z</time>
      </trkpt>
      <trkpt lat="48.25794" lon="-0.34571">
        <ele>312.5</ele>
        <time>2012-10-28T09:35:40Z</time>
      </trkpt>
      <trkpt lat="48.25807" lon="-0.3458">
        <ele>314.5</ele>
        <time>2012-10-28T09:35:50Z</time>
      </trkpt>
      <trkpt lat="48.25821" lon="-0.34583">
        <ele>315</ele>
        <time>2012-10-28T09:36:02Z</time>
      </trkpt>
      <trkpt lat="48.25834" lon="-0.34592">
        <ele>316</ele>
        <time>2012-10-28T09:36:16Z</time>
      </trkpt>
      <trkpt lat="48.25846" lon="-0.34591">
        <ele>316.5</ele>
        <time>2012-10-28T09:36:26Z</time>
      </trkpt>
      <trkpt lat="48.25853" lon="-0.34596">
        <ele>318.5</ele>
        <time>2012-10-28T09:36:30Z</time>
      </trkpt>
      <trkpt lat="48.2586" lon="-0.34598">
        <ele>319</ele>
        <time>2012-10-28T09:36:36Z</time>
      </trkpt>
      <trkpt lat="48.25864" lon="-0.34599">
        <ele>319</ele>
        <time>2012-10-28T09:36:40Z</time>
      </trkpt>
      <trkpt lat="48.25875" lon="-0.34606">
        <ele>320</ele>
        <time>2012-10-28T09:36:48Z</time>
      </trkpt>
      <trkpt lat="48.25881" lon="-0.34611">
        <ele>320</ele>
        <time>2012-10-28T09:36:54Z</time>
      </trkpt>
      <trkpt lat="48.25891" lon="-0.34615">
        <ele>321</ele>
        <time>2012-10-28T09:37:02Z</time>
      </trkpt>
      <trkpt lat="48.25897" lon="-0.34617">
        <ele>321.5</ele>
        <time>2012-10-28T09:37:08Z</time>
      </trkpt>
      <trkpt lat="48.25906" lon="-0.34618">
        <ele>322.5</ele>
        <time>2012-10-28T09:37:16Z</time>
      </trkpt>
      <trkpt lat="48.2591" lon="-0.34618">
        <ele>322.5</ele>
        <time>2012-10-28T09:37:20Z</time>
      </trkpt>
      <trkpt lat="48.25929" lon="-0.3461">
        <ele>326.5</ele>
        <time>2012-10-28T09:37:34Z</time>
      </trkpt>
      <trkpt lat="48.25942" lon="-0.34605">
        <ele>331.5</ele>
        <time>2012-10-28T09:37:40Z</time>
      </trkpt>
      <trkpt lat="48.25947" lon="-0.34599">
        <ele>332.5</ele>
        <time>2012-10-28T09:37:44Z</time>
      </trkpt>
      <trkpt lat="48.25953" lon="-0.34593">
        <ele>334.5</ele>
        <time>2012-10-28T09:37:50Z</time>
      </trkpt>
      <trkpt lat="48.25957" lon="-0.34586">
        <ele>336</ele>
        <time>2012-10-28T09:37:54Z</time>
      </trkpt>
      <trkpt lat="48.25966" lon="-0.34571">
        <ele>337.5</ele>
        <time>2012-10-28T09:38:04Z</time>
      </trkpt>
      <trkpt lat="48.25969" lon="-0.34566">
        <ele>338.5</ele>
        <time>2012-10-28T09:38:08Z</time>
      </trkpt>
      <trkpt lat="48.25983" lon="-0.34539">
        <ele>338</ele>
        <time>2012-10-28T09:38:22Z</time>
      </trkpt>
      <trkpt lat="48.25984" lon="-0.34536">
        <ele>338.5</ele>
        <time>2012-10-28T09:38:24Z</time>
      </trkpt>
      <trkpt lat="48.25993" lon="-0.34532">
        <ele>339.5</ele>
        <time>2012-10-28T09:38:32Z</time>
      </trkpt>
      <trkpt lat="48.25997" lon="-0.34528">
        <ele>339.5</ele>
        <time>2012-10-28T09:38:36Z</time>
      </trkpt>
      <trkpt lat="48.26003" lon="-0.34511">
        <ele>343</ele>
        <time>2012-10-28T09:38:44Z</time>
      </trkpt>
      <trkpt lat="48.26006" lon="-0.34506">
        <ele>342.5</ele>
        <time>2012-10-28T09:38:48Z</time>
      </trkpt>
      <trkpt lat="48.26013" lon="-0.34501">
        <ele>341.5</ele>
        <time>2012-10-28T09:38:54Z</time>
      </trkpt>
      <trkpt lat="48.26017" lon="-0.34498">
        <ele>340</ele>
        <time>2012-10-28T09:38:58Z</time>
      </trkpt>
      <trkpt lat="48.26021" lon="-0.34485">
        <ele>341</ele>
        <time>2012-10-28T09:39:04Z</time>
      </trkpt>
      <trkpt lat="48.26027" lon="-0.34477">
        <ele>342.5</ele>
        <time>2012-10-28T09:39:10Z</time>
      </trkpt>
      <trkpt lat="48.26038" lon="-0.34462">
        <ele>343.5</ele>
        <time>2012-10-28T09:39:22Z</time>
      </trkpt>
      <trkpt lat="48.26044" lon="-0.34452">
        <ele>343.5</ele>
        <time>2012-10-28T09:39:28Z</time>
      </trkpt>
      <trkpt lat="48.26048" lon="-0.34447">
        <ele>342</ele>
        <time>2012-10-28T09:39:34Z</time>
      </trkpt>
      <trkpt lat="48.26058" lon="-0.34432">
        <ele>342</ele>
        <time>2012-10-28T09:39:44Z</time>
      </trkpt>
      <trkpt lat="48.26061" lon="-0.34424">
        <ele>343</ele>
        <time>2012-10-28T09:39:48Z</time>
      </trkpt>
      <trkpt lat="48.26071" lon="-0.3442">
        <ele>342</ele>
        <time>2012-10-28T09:39:56Z</time>
      </trkpt>
      <trkpt lat="48.26075" lon="-0.34417">
        <ele>341</ele>
        <time>2012-10-28T09:40:00Z</time>
      </trkpt>
      <trkpt lat="48.26084" lon="-0.34408">
        <ele>340</ele>
        <time>2012-10-28T09:40:12Z</time>
      </trkpt>
      <trkpt lat="48.26088" lon="-0.344">
        <ele>338.5</ele>
        <time>2012-10-28T09:40:16Z</time>
      </trkpt>
      <trkpt lat="48.26094" lon="-0.34389">
        <ele>338.5</ele>
        <time>2012-10-28T09:40:24Z</time>
      </trkpt>
      <trkpt lat="48.26098" lon="-0.34383">
        <ele>338.5</ele>
        <time>2012-10-28T09:40:28Z</time>
      </trkpt>
      <trkpt lat="48.26106" lon="-0.34368">
        <ele>339.5</ele>
        <time>2012-10-28T09:40:38Z</time>
      </trkpt>
      <trkpt lat="48.26105" lon="-0.34357">
        <ele>342</ele>
        <time>2012-10-28T09:40:42Z</time>
      </trkpt>
      <trkpt lat="48.26108" lon="-0.34338">
        <ele>344.5</ele>
        <time>2012-10-28T09:40:48Z</time>
      </trkpt>
      <trkpt lat="48.26112" lon="-0.34327">
        <ele>344.5</ele>
        <time>2012-10-28T09:40:52Z</time>
      </trkpt>
      <trkpt lat="48.26114" lon="-0.34321">
        <ele>344</ele>
        <time>2012-10-28T09:40:54Z</time>
      </trkpt>
      <trkpt lat="48.26119" lon="-0.34315">
        <ele>343</ele>
        <time>2012-10-28T09:41:00Z</time>
      </trkpt>
      <trkpt lat="48.26122" lon="-0.34309">
        <ele>343</ele>
        <time>2012-10-28T09:41:04Z</time>
      </trkpt>
      <trkpt lat="48.26132" lon="-0.3429">
        <ele>344.5</ele>
        <time>2012-10-28T09:41:16Z</time>
      </trkpt>
      <trkpt lat="48.26135" lon="-0.34283">
        <ele>344.5</ele>
        <time>2012-10-28T09:41:20Z</time>
      </trkpt>
      <trkpt lat="48.26138" lon="-0.34272">
        <ele>346</ele>
        <time>2012-10-28T09:41:26Z</time>
      </trkpt>
      <trkpt lat="48.2614" lon="-0.34264">
        <ele>347</ele>
        <time>2012-10-28T09:41:30Z</time>
      </trkpt>
      <trkpt lat="48.26145" lon="-0.34252">
        <ele>349</ele>
        <time>2012-10-28T09:41:38Z</time>
      </trkpt>
      <trkpt lat="48.26151" lon="-0.34238">
        <ele>350.5</ele>
        <time>2012-10-28T09:41:46Z</time>
      </trkpt>
      <trkpt lat="48.2616" lon="-0.3422">
        <ele>352</ele>
        <time>2012-10-28T09:41:58Z</time>
      </trkpt>
      <trkpt lat="48.26163" lon="-0.34213">
        <ele>352.5</ele>
        <time>2012-10-28T09:42:02Z</time>
      </trkpt>
      <trkpt lat="48.26169" lon="-0.34202">
        <ele>352.5</ele>
        <time>2012-10-28T09:42:08Z</time>
      </trkpt>
      <trkpt lat="48.26173" lon="-0.34196">
        <ele>353</ele>
        <time>2012-10-28T09:42:12Z</time>
      </trkpt>
      <trkpt lat="48.26177" lon="-0.3419">
        <ele>353.5</ele>
        <time>2012-10-28T09:42:16Z</time>
      </trkpt>
      <trkpt lat="48.26184" lon="-0.34176">
        <ele>353.5</ele>
        <time>2012-10-28T09:42:24Z</time>
      </trkpt>
      <trkpt lat="48.26186" lon="-0.34173">
        <ele>353</ele>
        <time>2012-10-28T09:42:26Z</time>
      </trkpt>
      <trkpt lat="48.26191" lon="-0.34165">
        <ele>353</ele>
        <time>2012-10-28T09:42:32Z</time>
      </trkpt>
      <trkpt lat="48.26197" lon="-0.34154">
        <ele>353.5</ele>
        <time>2012-10-28T09:42:40Z</time>
      </trkpt>
      <trkpt lat="48.26208" lon="-0.34141">
        <ele>354</ele>
        <time>2012-10-28T09:42:52Z</time>
      </trkpt>
      <trkpt lat="48.26209" lon="-0.34139">
        <ele>354.5</ele>
        <time>2012-10-28T09:42:54Z</time>
      </trkpt>
      <trkpt lat="48.26212" lon="-0.34127">
        <ele>354.5</ele>
        <time>2012-10-28T09:43:00Z</time>
      </trkpt>
      <trkpt lat="48.26216" lon="-0.34119">
        <ele>354.5</ele>
        <time>2012-10-28T09:43:06Z</time>
      </trkpt>
      <trkpt lat="48.2622" lon="-0.34114">
        <ele>354</ele>
        <time>2012-10-28T09:43:10Z</time>
      </trkpt>
      <trkpt lat="48.26226" lon="-0.34097">
        <ele>354</ele>
        <time>2012-10-28T09:43:20Z</time>
      </trkpt>
      <trkpt lat="48.26229" lon="-0.3409">
        <ele>354.5</ele>
        <time>2012-10-28T09:43:24Z</time>
      </trkpt>
      <trkpt lat="48.26232" lon="-0.3408">
        <ele>355</ele>
        <time>2012-10-28T09:43:30Z</time>
      </trkpt>
      <trkpt lat="48.26233" lon="-0.34076">
        <ele>354.5</ele>
        <time>2012-10-28T09:43:32Z</time>
      </trkpt>
      <trkpt lat="48.26234" lon="-0.34069">
        <ele>355</ele>
        <time>2012-10-28T09:43:34Z</time>
      </trkpt>
      <trkpt lat="48.2624" lon="-0.34056">
        <ele>354</ele>
        <time>2012-10-28T09:43:42Z</time>
      </trkpt>
      <trkpt lat="48.26241" lon="-0.34052">
        <ele>353.5</ele>
        <time>2012-10-28T09:43:44Z</time>
      </trkpt>
      <trkpt lat="48.26245" lon="-0.34042">
        <ele>353</ele>
        <time>2012-10-28T09:43:48Z</time>
      </trkpt>
      <trkpt lat="48.26249" lon="-0.34033">
        <ele>353</ele>
        <time>2012-10-28T09:43:54Z</time>
      </trkpt>
      <trkpt lat="48.26252" lon="-0.34026">
        <ele>352.5</ele>
        <time>2012-10-28T09:43:58Z</time>
      </trkpt>
      <trkpt lat="48.26254" lon="-0.34023">
        <ele>352.5</ele>
        <time>2012-10-28T09:44:00Z</time>
      </trkpt>
      <trkpt lat="48.2626" lon="-0.34015">
        <ele>352.5</ele>
        <time>2012-10-28T09:44:06Z</time>
      </trkpt>
      <trkpt lat="48.26269" lon="-0.34012">
        <ele>352.5</ele>
        <time>2012-10-28T09:44:12Z</time>
      </trkpt>
      <trkpt lat="48.26276" lon="-0.34005">
        <ele>352</ele>
        <time>2012-10-28T09:44:18Z</time>
      </trkpt>
      <trkpt lat="48.26279" lon="-0.33997">
        <ele>350.5</ele>
        <time>2012-10-28T09:44:28Z</time>
      </trkpt>
      <trkpt lat="48.26285" lon="-0.33993">
        <ele>350.5</ele>
        <time>2012-10-28T09:44:32Z</time>
      </trkpt>
      <trkpt lat="48.26289" lon="-0.33989">
        <ele>350</ele>
        <time>2012-10-28T09:44:36Z</time>
      </trkpt>
      <trkpt lat="48.26299" lon="-0.33977">
        <ele>350.5</ele>
        <time>2012-10-28T09:44:44Z</time>
      </trkpt>
      <trkpt lat="48.26302" lon="-0.33974">
        <ele>350.5</ele>
        <time>2012-10-28T09:44:46Z</time>
      </trkpt>
      <trkpt lat="48.2631" lon="-0.33968">
        <ele>351.5</ele>
        <time>2012-10-28T09:44:52Z</time>
      </trkpt>
      <trkpt lat="48.26316" lon="-0.33964">
        <ele>353.5</ele>
        <time>2012-10-28T09:44:56Z</time>
      </trkpt>
      <trkpt lat="48.26325" lon="-0.33959">
        <ele>356</ele>
        <time>2012-10-28T09:45:04Z</time>
      </trkpt>
      <trkpt lat="48.2633" lon="-0.33958">
        <ele>356</ele>
        <time>2012-10-28T09:45:08Z</time>
      </trkpt>
      <trkpt lat="48.26338" lon="-0.33953">
        <ele>356</ele>
        <time>2012-10-28T09:45:14Z</time>
      </trkpt>
      <trkpt lat="48.26346" lon="-0.33943">
        <ele>355.5</ele>
        <time>2012-10-28T09:45:20Z</time>
      </trkpt>
      <trkpt lat="48.26355" lon="-0.33929">
        <ele>352.5</ele>
        <time>2012-10-28T09:45:28Z</time>
      </trkpt>
      <trkpt lat="48.26362" lon="-0.33924">
        <ele>351</ele>
        <time>2012-10-28T09:45:34Z</time>
      </trkpt>
      <trkpt lat="48.26369" lon="-0.33919">
        <ele>350</ele>
        <time>2012-10-28T09:45:38Z</time>
      </trkpt>
      <trkpt lat="48.26382" lon="-0.3391">
        <ele>347</ele>
        <time>2012-10-28T09:45:50Z</time>
      </trkpt>
      <trkpt lat="48.26392" lon="-0.33907">
        <ele>350</ele>
        <time>2012-10-28T09:45:56Z</time>
      </trkpt>
      <trkpt lat="48.26395" lon="-0.33906">
        <ele>349.5</ele>
        <time>2012-10-28T09:45:58Z</time>
      </trkpt>
      <trkpt lat="48.26399" lon="-0.33901">
        <ele>350</ele>
        <time>2012-10-28T09:46:02Z</time>
      </trkpt>
      <trkpt lat="48.2641" lon="-0.33891">
        <ele>349.5</ele>
        <time>2012-10-28T09:46:12Z</time>
      </trkpt>
      <trkpt lat="48.26419" lon="-0.33883">
        <ele>349</ele>
        <time>2012-10-28T09:46:18Z</time>
      </trkpt>
      <trkpt lat="48.26423" lon="-0.33879">
        <ele>349</ele>
        <time>2012-10-28T09:46:22Z</time>
      </trkpt>
      <trkpt lat="48.26426" lon="-0.33878">
        <ele>349.5</ele>
        <time>2012-10-28T09:46:24Z</time>
      </trkpt>
      <trkpt lat="48.26432" lon="-0.33874">
        <ele>350.5</ele>
        <time>2012-10-28T09:46:30Z</time>
      </trkpt>
      <trkpt lat="48.26437" lon="-0.33874">
        <ele>351.5</ele>
        <time>2012-10-28T09:46:34Z</time>
      </trkpt>
      <trkpt lat="48.26444" lon="-0.33866">
        <ele>351</ele>
        <time>2012-10-28T09:46:40Z</time>
      </trkpt>
      <trkpt lat="48.26448" lon="-0.33862">
        <ele>350</ele>
        <time>2012-10-28T09:46:44Z</time>
      </trkpt>
      <trkpt lat="48.26454" lon="-0.3386">
        <ele>349.5</ele>
        <time>2012-10-28T09:46:48Z</time>
      </trkpt>
      <trkpt lat="48.26465" lon="-0.33856">
        <ele>346</ele>
        <time>2012-10-28T09:46:58Z</time>
      </trkpt>
      <trkpt lat="48.26472" lon="-0.33867">
        <ele>342.5</ele>
        <time>2012-10-28T09:47:06Z</time>
      </trkpt>
      <trkpt lat="48.26474" lon="-0.33872">
        <ele>343.5</ele>
        <time>2012-10-28T09:47:10Z</time>
      </trkpt>
      <trkpt lat="48.26476" lon="-0.33875">
        <ele>344</ele>
        <time>2012-10-28T09:47:12Z</time>
      </trkpt>
      <trkpt lat="48.26481" lon="-0.33882">
        <ele>344.5</ele>
        <time>2012-10-28T09:47:18Z</time>
      </trkpt>
      <trkpt lat="48.26485" lon="-0.33887">
        <ele>343.5</ele>
        <time>2012-10-28T09:47:22Z</time>
      </trkpt>
      <trkpt lat="48.26487" lon="-0.3389">
        <ele>343.5</ele>
        <time>2012-10-28T09:47:24Z</time>
      </trkpt>
      <trkpt lat="48.26495" lon="-0.33895">
        <ele>344.5</ele>
        <time>2012-10-28T09:47:30Z</time>
      </trkpt>
      <trkpt lat="48.26498" lon="-0.33897">
        <ele>344</ele>
        <time>2012-10-28T09:47:32Z</time>
      </trkpt>
      <trkpt lat="48.26503" lon="-0.339">
        <ele>342.5</ele>
        <time>2012-10-28T09:47:36Z</time>
      </trkpt>
      <trkpt lat="48.26506" lon="-0.33902">
        <ele>342.5</ele>
        <time>2012-10-28T09:47:38Z</time>
      </trkpt>
      <trkpt lat="48.26513" lon="-0.33907">
        <ele>343</ele>
        <time>2012-10-28T09:47:44Z</time>
      </trkpt>
      <trkpt lat="48.26517" lon="-0.3391">
        <ele>342.5</ele>
        <time>2012-10-28T09:47:48Z</time>
      </trkpt>
      <trkpt lat="48.2652" lon="-0.33913">
        <ele>341.5</ele>
        <time>2012-10-28T09:47:52Z</time>
      </trkpt>
      <trkpt lat="48.26531" lon="-0.3392">
        <ele>339.5</ele>
        <time>2012-10-28T09:48:02Z</time>
      </trkpt>
      <trkpt lat="48.26535" lon="-0.33922">
        <ele>339</ele>
        <time>2012-10-28T09:48:06Z</time>
      </trkpt>
      <trkpt lat="48.26541" lon="-0.33933">
        <ele>339</ele>
        <time>2012-10-28T09:48:12Z</time>
      </trkpt>
      <trkpt lat="48.26544" lon="-0.3394">
        <ele>340</ele>
        <time>2012-10-28T09:48:16Z</time>
      </trkpt>
      <trkpt lat="48.26546" lon="-0.33965">
        <ele>344.5</ele>
        <time>2012-10-28T09:48:28Z</time>
      </trkpt>
      <trkpt lat="48.26548" lon="-0.33982">
        <ele>346</ele>
        <time>2012-10-28T09:48:34Z</time>
      </trkpt>
      <trkpt lat="48.26548" lon="-0.33993">
        <ele>346</ele>
        <time>2012-10-28T09:48:36Z</time>
      </trkpt>
      <trkpt lat="48.26543" lon="-0.34016">
        <ele>347.5</ele>
        <time>2012-10-28T09:48:48Z</time>
      </trkpt>
      <trkpt lat="48.26542" lon="-0.34029">
        <ele>348.5</ele>
        <time>2012-10-28T09:48:54Z</time>
      </trkpt>
      <trkpt lat="48.2654" lon="-0.3405">
        <ele>349.5</ele>
        <time>2012-10-28T09:49:04Z</time>
      </trkpt>
      <trkpt lat="48.26539" lon="-0.34059">
        <ele>350.5</ele>
        <time>2012-10-28T09:49:08Z</time>
      </trkpt>
      <trkpt lat="48.26537" lon="-0.3407">
        <ele>351.5</ele>
        <time>2012-10-28T09:49:14Z</time>
      </trkpt>
      <trkpt lat="48.26537" lon="-0.34073">
        <ele>352</ele>
        <time>2012-10-28T09:49:16Z</time>
      </trkpt>
      <trkpt lat="48.26535" lon="-0.34082">
        <ele>352.5</ele>
        <time>2012-10-28T09:49:20Z</time>
      </trkpt>
      <trkpt lat="48.26533" lon="-0.34105">
        <ele>354.5</ele>
        <time>2012-10-28T09:49:30Z</time>
      </trkpt>
      <trkpt lat="48.2653" lon="-0.34115">
        <ele>354.5</ele>
        <time>2012-10-28T09:49:38Z</time>
      </trkpt>
      <trkpt lat="48.26529" lon="-0.34122">
        <ele>354</ele>
        <time>2012-10-28T09:49:44Z</time>
      </trkpt>
      <trkpt lat="48.26526" lon="-0.34136">
        <ele>354</ele>
        <time>2012-10-28T09:49:52Z</time>
      </trkpt>
      <trkpt lat="48.26525" lon="-0.34143">
        <ele>354</ele>
        <time>2012-10-28T09:49:56Z</time>
      </trkpt>
      <trkpt lat="48.26524" lon="-0.3415">
        <ele>354</ele>
        <time>2012-10-28T09:50:00Z</time>
      </trkpt>
      <trkpt lat="48.26521" lon="-0.34163">
        <ele>353</ele>
        <time>2012-10-28T09:50:08Z</time>
      </trkpt>
      <trkpt lat="48.2652" lon="-0.34179">
        <ele>353.5</ele>
        <time>2012-10-28T09:50:14Z</time>
      </trkpt>
      <trkpt lat="48.26519" lon="-0.34187">
        <ele>354</ele>
        <time>2012-10-28T09:50:18Z</time>
      </trkpt>
      <trkpt lat="48.26517" lon="-0.34197">
        <ele>354.5</ele>
        <time>2012-10-28T09:50:22Z</time>
      </trkpt>
      <trkpt lat="48.26517" lon="-0.34207">
        <ele>355</ele>
        <time>2012-10-28T09:50:26Z</time>
      </trkpt>
      <trkpt lat="48.26517" lon="-0.34215">
        <ele>355</ele>
        <time>2012-10-28T09:50:30Z</time>
      </trkpt>
      <trkpt lat="48.26517" lon="-0.34221">
        <ele>354.5</ele>
        <time>2012-10-28T09:50:34Z</time>
      </trkpt>
      <trkpt lat="48.26517" lon="-0.34234">
        <ele>355</ele>
        <time>2012-10-28T09:50:44Z</time>
      </trkpt>
      <trkpt lat="48.26513" lon="-0.34241">
        <ele>355.5</ele>
        <time>2012-10-28T09:50:50Z</time>
      </trkpt>
      <trkpt lat="48.26512" lon="-0.34258">
        <ele>356</ele>
        <time>2012-10-28T09:50:58Z</time>
      </trkpt>
      <trkpt lat="48.26511" lon="-0.34266">
        <ele>356.5</ele>
        <time>2012-10-28T09:51:02Z</time>
      </trkpt>
      <trkpt lat="48.26513" lon="-0.34279">
        <ele>357.5</ele>
        <time>2012-10-28T09:51:08Z</time>
      </trkpt>
      <trkpt lat="48.26515" lon="-0.34286">
        <ele>357.5</ele>
        <time>2012-10-28T09:51:12Z</time>
      </trkpt>
      <trkpt lat="48.26516" lon="-0.3429">
        <ele>357.5</ele>
        <time>2012-10-28T09:51:14Z</time>
      </trkpt>
      <trkpt lat="48.26514" lon="-0.34301">
        <ele>357.5</ele>
        <time>2012-10-28T09:51:22Z</time>
      </trkpt>
      <trkpt lat="48.26514" lon="-0.34312">
        <ele>358</ele>
        <time>2012-10-28T09:51:26Z</time>
      </trkpt>
      <trkpt lat="48.26517" lon="-0.34319">
        <ele>358</ele>
        <time>2012-10-28T09:51:28Z</time>
      </trkpt>
      <trkpt lat="48.26519" lon="-0.34337">
        <ele>357.5</ele>
        <time>2012-10-28T09:51:36Z</time>
      </trkpt>
      <trkpt lat="48.2652" lon="-0.34349">
        <ele>357.5</ele>
        <time>2012-10-28T09:51:44Z</time>
      </trkpt>
      <trkpt lat="48.2652" lon="-0.34352">
        <ele>357.5</ele>
        <time>2012-10-28T09:51:46Z</time>
      </trkpt>
      <trkpt lat="48.26521" lon="-0.34357">
        <ele>357.5</ele>
        <time>2012-10-28T09:51:48Z</time>
      </trkpt>
      <trkpt lat="48.26523" lon="-0.34377">
        <ele>357</ele>
        <time>2012-10-28T09:52:00Z</time>
      </trkpt>
      <trkpt lat="48.26524" lon="-0.34397">
        <ele>357</ele>
        <time>2012-10-28T09:52:10Z</time>
      </trkpt>
      <trkpt lat="48.26525" lon="-0.34405">
        <ele>357</ele>
        <time>2012-10-28T09:52:14Z</time>
      </trkpt>
      <trkpt lat="48.26526" lon="-0.3442">
        <ele>357</ele>
        <time>2012-10-28T09:52:22Z</time>
      </trkpt>
      <trkpt lat="48.26528" lon="-0.34429">
        <ele>357.5</ele>
        <time>2012-10-28T09:52:28Z</time>
      </trkpt>
      <trkpt lat="48.2653" lon="-0.34441">
        <ele>357</ele>
        <time>2012-10-28T09:52:34Z</time>
      </trkpt>
      <trkpt lat="48.26531" lon="-0.34449">
        <ele>356.5</ele>
        <time>2012-10-28T09:52:38Z</time>
      </trkpt>
      <trkpt lat="48.26532" lon="-0.34453">
        <ele>356.5</ele>
        <time>2012-10-28T09:52:40Z</time>
      </trkpt>
      <trkpt lat="48.26537" lon="-0.34472">
        <ele>356.5</ele>
        <time>2012-10-28T09:52:52Z</time>
      </trkpt>
      <trkpt lat="48.26538" lon="-0.3448">
        <ele>356.5</ele>
        <time>2012-10-28T09:52:56Z</time>
      </trkpt>
      <trkpt lat="48.26538" lon="-0.34493">
        <ele>355.5</ele>
        <time>2012-10-28T09:53:04Z</time>
      </trkpt>
      <trkpt lat="48.2654" lon="-0.34507">
        <ele>354.5</ele>
        <time>2012-10-28T09:53:14Z</time>
      </trkpt>
      <trkpt lat="48.26544" lon="-0.34515">
        <ele>354.5</ele>
        <time>2012-10-28T09:53:18Z</time>
      </trkpt>
      <trkpt lat="48.26546" lon="-0.34534">
        <ele>353.5</ele>
        <time>2012-10-28T09:53:24Z</time>
      </trkpt>
      <trkpt lat="48.26545" lon="-0.34542">
        <ele>353</ele>
        <time>2012-10-28T09:53:30Z</time>
      </trkpt>
      <trkpt lat="48.26545" lon="-0.34553">
        <ele>352</ele>
        <time>2012-10-28T09:53:38Z</time>
      </trkpt>
      <trkpt lat="48.26547" lon="-0.34562">
        <ele>351.5</ele>
        <time>2012-10-28T09:53:42Z</time>
      </trkpt>
      <trkpt lat="48.26551" lon="-0.34575">
        <ele>350</ele>
        <time>2012-10-28T09:53:50Z</time>
      </trkpt>
      <trkpt lat="48.26552" lon="-0.34582">
        <ele>349.5</ele>
        <time>2012-10-28T09:53:54Z</time>
      </trkpt>
      <trkpt lat="48.2656" lon="-0.34596">
        <ele>349</ele>
        <time>2012-10-28T09:54:04Z</time>
      </trkpt>
      <trkpt lat="48.26565" lon="-0.34597">
        <ele>348</ele>
        <time>2012-10-28T09:54:08Z</time>
      </trkpt>
      <trkpt lat="48.26573" lon="-0.34597">
        <ele>349</ele>
        <time>2012-10-28T09:54:14Z</time>
      </trkpt>
      <trkpt lat="48.2658" lon="-0.34598">
        <ele>349.5</ele>
        <time>2012-10-28T09:54:18Z</time>
      </trkpt>
      <trkpt lat="48.26585" lon="-0.34598">
        <ele>352</ele>
        <time>2012-10-28T09:54:22Z</time>
      </trkpt>
      <trkpt lat="48.2658" lon="-0.34598">
        <ele>348</ele>
        <time>2012-10-28T09:54:36Z</time>
      </trkpt>
      <trkpt lat="48.26574" lon="-0.34599">
        <ele>348.5</ele>
        <time>2012-10-28T09:54:42Z</time>
      </trkpt>
      <trkpt lat="48.26565" lon="-0.3461">
        <ele>348.5</ele>
        <time>2012-10-28T09:54:50Z</time>
      </trkpt>
      <trkpt lat="48.26563" lon="-0.34622">
        <ele>343.5</ele>
        <time>2012-10-28T09:54:56Z</time>
      </trkpt>
      <trkpt lat="48.26564" lon="-0.34634">
        <ele>343.5</ele>
        <time>2012-10-28T09:55:02Z</time>
      </trkpt>
      <trkpt lat="48.26566" lon="-0.34643">
        <ele>344.5</ele>
        <time>2012-10-28T09:55:06Z</time>
      </trkpt>
      <trkpt lat="48.26568" lon="-0.34654">
        <ele>344.5</ele>
        <time>2012-10-28T09:55:12Z</time>
      </trkpt>
      <trkpt lat="48.26571" lon="-0.34664">
        <ele>343</ele>
        <time>2012-10-28T09:55:18Z</time>
      </trkpt>
      <trkpt lat="48.26573" lon="-0.34668">
        <ele>341.5</ele>
        <time>2012-10-28T09:55:20Z</time>
      </trkpt>
      <trkpt lat="48.26575" lon="-0.3468">
        <ele>340.5</ele>
        <time>2012-10-28T09:55:26Z</time>
      </trkpt>
      <trkpt lat="48.26577" lon="-0.34688">
        <ele>340</ele>
        <time>2012-10-28T09:55:30Z</time>
      </trkpt>
      <trkpt lat="48.2658" lon="-0.347">
        <ele>341.5</ele>
        <time>2012-10-28T09:55:38Z</time>
      </trkpt>
      <trkpt lat="48.2658" lon="-0.34708">
        <ele>341.5</ele>
        <time>2012-10-28T09:55:42Z</time>
      </trkpt>
      <trkpt lat="48.26583" lon="-0.34725">
        <ele>339.5</ele>
        <time>2012-10-28T09:55:56Z</time>
      </trkpt>
      <trkpt lat="48.26587" lon="-0.34739">
        <ele>338.5</ele>
        <time>2012-10-28T09:56:04Z</time>
      </trkpt>
      <trkpt lat="48.26587" lon="-0.34746">
        <ele>338</ele>
        <time>2012-10-28T09:56:08Z</time>
      </trkpt>
      <trkpt lat="48.26587" lon="-0.3475">
        <ele>337.5</ele>
        <time>2012-10-28T09:56:10Z</time>
      </trkpt>
      <trkpt lat="48.26589" lon="-0.3476">
        <ele>337</ele>
        <time>2012-10-28T09:56:16Z</time>
      </trkpt>
      <trkpt lat="48.26589" lon="-0.34763">
        <ele>336.5</ele>
        <time>2012-10-28T09:56:18Z</time>
      </trkpt>
      <trkpt lat="48.2659" lon="-0.34767">
        <ele>337</ele>
        <time>2012-10-28T09:56:20Z</time>
      </trkpt>
      <trkpt lat="48.26594" lon="-0.3478">
        <ele>336</ele>
        <time>2012-10-28T09:56:28Z</time>
      </trkpt>
      <trkpt lat="48.26597" lon="-0.34788">
        <ele>335.5</ele>
        <time>2012-10-28T09:56:36Z</time>
      </trkpt>
      <trkpt lat="48.26605" lon="-0.348">
        <ele>335.5</ele>
        <time>2012-10-28T09:56:42Z</time>
      </trkpt>
      <trkpt lat="48.26608" lon="-0.34809">
        <ele>335.5</ele>
        <time>2012-10-28T09:56:46Z</time>
      </trkpt>
      <trkpt lat="48.2661" lon="-0.34817">
        <ele>336</ele>
        <time>2012-10-28T09:56:50Z</time>
      </trkpt>
      <trkpt lat="48.2661" lon="-0.3482">
        <ele>336</ele>
        <time>2012-10-28T09:56:52Z</time>
      </trkpt>
      <trkpt lat="48.26612" lon="-0.34831">
        <ele>336.5</ele>
        <time>2012-10-28T09:56:58Z</time>
      </trkpt>
      <trkpt lat="48.26615" lon="-0.34842">
        <ele>335.5</ele>
        <time>2012-10-28T09:57:04Z</time>
      </trkpt>
      <trkpt lat="48.26618" lon="-0.34861">
        <ele>335</ele>
        <time>2012-10-28T09:57:14Z</time>
      </trkpt>
      <trkpt lat="48.2662" lon="-0.34874">
        <ele>334</ele>
        <time>2012-10-28T09:57:22Z</time>
      </trkpt>
      <trkpt lat="48.26621" lon="-0.34881">
        <ele>333.5</ele>
        <time>2012-10-28T09:57:26Z</time>
      </trkpt>
      <trkpt lat="48.26622" lon="-0.34897">
        <ele>333</ele>
        <time>2012-10-28T09:57:34Z</time>
      </trkpt>
      <trkpt lat="48.26624" lon="-0.34904">
        <ele>332.5</ele>
        <time>2012-10-28T09:57:38Z</time>
      </trkpt>
      <trkpt lat="48.26625" lon="-0.34908">
        <ele>332.5</ele>
        <time>2012-10-28T09:57:40Z</time>
      </trkpt>
      <trkpt lat="48.26627" lon="-0.34913">
        <ele>332.5</ele>
        <time>2012-10-28T09:57:42Z</time>
      </trkpt>
      <trkpt lat="48.26628" lon="-0.34921">
        <ele>332</ele>
        <time>2012-10-28T09:57:46Z</time>
      </trkpt>
      <trkpt lat="48.26628" lon="-0.34928">
        <ele>331</ele>
        <time>2012-10-28T09:57:52Z</time>
      </trkpt>
      <trkpt lat="48.26628" lon="-0.34943">
        <ele>330</ele>
        <time>2012-10-28T09:58:00Z</time>
      </trkpt>
      <trkpt lat="48.26634" lon="-0.34949">
        <ele>330.5</ele>
        <time>2012-10-28T09:58:06Z</time>
      </trkpt>
      <trkpt lat="48.26634" lon="-0.34949">
        <ele>330.5</ele>
        <time>2012-10-28T09:58:22Z</time>
      </trkpt>
      <trkpt lat="48.26634" lon="-0.34949">
        <ele>330.5</ele>
        <time>2012-10-28T09:58:40Z</time>
      </trkpt>
      <trkpt lat="48.26634" lon="-0.34949">
        <ele>330.5</ele>
        <time>2012-10-28T09:59:06Z</time>
      </trkpt>
      <trkpt lat="48.26634" lon="-0.34949">
        <ele>330.5</ele>
        <time>2012-10-28T09:59:24Z</time>
      </trkpt>
      <trkpt lat="48.26634" lon="-0.34949">
        <ele>330.5</ele>
        <time>2012-10-28T09:59:42Z</time>
      </trkpt>
      <trkpt lat="48.26634" lon="-0.34949">
        <ele>330.5</ele>
        <time>2012-10-28T10:00:00Z</time>
      </trkpt>
      <trkpt lat="48.26634" lon="-0.34949">
        <ele>330.5</ele>
        <time>2012-10-28T10:00:18Z</time>
      </trkpt>
      <trkpt lat="48.26634" lon="-0.34949">
        <ele>330.5</ele>
        <time>2012-10-28T10:00:36Z</time>
      </trkpt>
      <trkpt lat="48.26634" lon="-0.34949">
        <ele>330.5</ele>
        <time>2012-10-28T10:00:54Z</time>
      </trkpt>
      <trkpt lat="48.26634" lon="-0.34949">
        <ele>330.5</ele>
        <time>2012-10-28T10:01:12Z</time>
      </trkpt>
      <trkpt lat="48.26634" lon="-0.34949">
        <ele>330.5</ele>
        <time>2012-10-28T10:01:30Z</time>
      </trkpt>
      <trkpt lat="48.26634" lon="-0.34949">
        <ele>330.5</ele>
        <time>2012-10-28T10:01:48Z</time>
      </trkpt>
      <trkpt lat="48.26634" lon="-0.34949">
        <ele>330.5</ele>
        <time>2012-10-28T10:02:06Z</time>
      </trkpt>
      <trkpt lat="48.26634" lon="-0.34949">
        <ele>330.5</ele>
        <time>2012-10-28T10:02:44Z</time>
      </trkpt>
      <trkpt lat="48.26628" lon="-0.34973">
        <ele>332.5</ele>
        <time>2012-10-28T10:02:46Z</time>
      </trkpt>
      <trkpt lat="48.26624" lon="-0.34978">
        <ele>332</ele>
        <time>2012-10-28T10:02:54Z</time>
      </trkpt>
      <trkpt lat="48.26623" lon="-0.34986">
        <ele>331</ele>
        <time>2012-10-28T10:03:02Z</time>
      </trkpt>
      <trkpt lat="48.26623" lon="-0.34986">
        <ele>331</ele>
        <time>2012-10-28T10:03:18Z</time>
      </trkpt>
      <trkpt lat="48.26623" lon="-0.34986">
        <ele>331</ele>
        <time>2012-10-28T10:03:50Z</time>
      </trkpt>
      <trkpt lat="48.26623" lon="-0.34994">
        <ele>330</ele>
        <time>2012-10-28T10:03:52Z</time>
      </trkpt>
      <trkpt lat="48.26623" lon="-0.35002">
        <ele>330.5</ele>
        <time>2012-10-28T10:03:56Z</time>
      </trkpt>
      <trkpt lat="48.26622" lon="-0.35012">
        <ele>330.5</ele>
        <time>2012-10-28T10:04:02Z</time>
      </trkpt>
      <trkpt lat="48.2662" lon="-0.35018">
        <ele>330.5</ele>
        <time>2012-10-28T10:04:06Z</time>
      </trkpt>
      <trkpt lat="48.26618" lon="-0.35038">
        <ele>331</ele>
        <time>2012-10-28T10:04:18Z</time>
      </trkpt>
      <trkpt lat="48.26614" lon="-0.35053">
        <ele>330.5</ele>
        <time>2012-10-28T10:04:28Z</time>
      </trkpt>
      <trkpt lat="48.2661" lon="-0.35065">
        <ele>330.5</ele>
        <time>2012-10-28T10:04:38Z</time>
      </trkpt>
      <trkpt lat="48.26603" lon="-0.35076">
        <ele>330.5</ele>
        <time>2012-10-28T10:04:44Z</time>
      </trkpt>
      <trkpt lat="48.26593" lon="-0.35088">
        <ele>330.5</ele>
        <time>2012-10-28T10:04:52Z</time>
      </trkpt>
      <trkpt lat="48.26588" lon="-0.35101">
        <ele>330.5</ele>
        <time>2012-10-28T10:04:58Z</time>
      </trkpt>
      <trkpt lat="48.26588" lon="-0.35114">
        <ele>331</ele>
        <time>2012-10-28T10:05:06Z</time>
      </trkpt>
      <trkpt lat="48.26586" lon="-0.35152">
        <ele>332.5</ele>
        <time>2012-10-28T10:05:22Z</time>
      </trkpt>
      <trkpt lat="48.26583" lon="-0.35167">
        <ele>332.5</ele>
        <time>2012-10-28T10:05:36Z</time>
      </trkpt>
      <trkpt lat="48.26578" lon="-0.3517">
        <ele>332.5</ele>
        <time>2012-10-28T10:05:38Z</time>
      </trkpt>
      <trkpt lat="48.26566" lon="-0.35189">
        <ele>332</ele>
        <time>2012-10-28T10:05:50Z</time>
      </trkpt>
      <trkpt lat="48.26569" lon="-0.35205">
        <ele>331.5</ele>
        <time>2012-10-28T10:06:00Z</time>
      </trkpt>
      <trkpt lat="48.26568" lon="-0.35217">
        <ele>332.5</ele>
        <time>2012-10-28T10:06:04Z</time>
      </trkpt>
      <trkpt lat="48.26568" lon="-0.3523">
        <ele>332.5</ele>
        <time>2012-10-28T10:06:08Z</time>
      </trkpt>
      <trkpt lat="48.26564" lon="-0.35249">
        <ele>330</ele>
        <time>2012-10-28T10:06:16Z</time>
      </trkpt>
      <trkpt lat="48.26561" lon="-0.35267">
        <ele>327.5</ele>
        <time>2012-10-28T10:06:22Z</time>
      </trkpt>
      <trkpt lat="48.26555" lon="-0.35283">
        <ele>327</ele>
        <time>2012-10-28T10:06:34Z</time>
      </trkpt>
      <trkpt lat="48.26552" lon="-0.35298">
        <ele>329</ele>
        <time>2012-10-28T10:06:44Z</time>
      </trkpt>
      <trkpt lat="48.26546" lon="-0.35313">
        <ele>331</ele>
        <time>2012-10-28T10:06:52Z</time>
      </trkpt>
      <trkpt lat="48.26552" lon="-0.35331">
        <ele>333</ele>
        <time>2012-10-28T10:07:04Z</time>
      </trkpt>
      <trkpt lat="48.26543" lon="-0.35351">
        <ele>341.5</ele>
        <time>2012-10-28T10:07:10Z</time>
      </trkpt>
      <trkpt lat="48.2653" lon="-0.35362">
        <ele>345.5</ele>
        <time>2012-10-28T10:07:16Z</time>
      </trkpt>
      <trkpt lat="48.26531" lon="-0.35376">
        <ele>338</ele>
        <time>2012-10-28T10:07:28Z</time>
      </trkpt>
      <trkpt lat="48.26531" lon="-0.35385">
        <ele>330</ele>
        <time>2012-10-28T10:07:42Z</time>
      </trkpt>
      <trkpt lat="48.26526" lon="-0.354">
        <ele>330</ele>
        <time>2012-10-28T10:07:50Z</time>
      </trkpt>
      <trkpt lat="48.26524" lon="-0.35406">
        <ele>330.5</ele>
        <time>2012-10-28T10:07:52Z</time>
      </trkpt>
      <trkpt lat="48.26516" lon="-0.3542">
        <ele>333.5</ele>
        <time>2012-10-28T10:08:00Z</time>
      </trkpt>
      <trkpt lat="48.26514" lon="-0.35434">
        <ele>331</ele>
        <time>2012-10-28T10:08:04Z</time>
      </trkpt>
      <trkpt lat="48.26511" lon="-0.35456">
        <ele>333</ele>
        <time>2012-10-28T10:08:12Z</time>
      </trkpt>
      <trkpt lat="48.26509" lon="-0.35469">
        <ele>332.5</ele>
        <time>2012-10-28T10:08:20Z</time>
      </trkpt>
      <trkpt lat="48.26506" lon="-0.35484">
        <ele>326</ele>
        <time>2012-10-28T10:08:28Z</time>
      </trkpt>
      <trkpt lat="48.26501" lon="-0.35486">
        <ele>323</ele>
        <time>2012-10-28T10:08:30Z</time>
      </trkpt>
      <trkpt lat="48.26499" lon="-0.35492">
        <ele>322.5</ele>
        <time>2012-10-28T10:08:34Z</time>
      </trkpt>
      <trkpt lat="48.26497" lon="-0.35519">
        <ele>311.5</ele>
        <time>2012-10-28T10:08:46Z</time>
      </trkpt>
      <trkpt lat="48.26495" lon="-0.35538">
        <ele>313</ele>
        <time>2012-10-28T10:08:58Z</time>
      </trkpt>
      <trkpt lat="48.26492" lon="-0.3556">
        <ele>311.5</ele>
        <time>2012-10-28T10:09:08Z</time>
      </trkpt>
      <trkpt lat="48.26489" lon="-0.35567">
        <ele>313</ele>
        <time>2012-10-28T10:09:10Z</time>
      </trkpt>
      <trkpt lat="48.26488" lon="-0.35592">
        <ele>316.5</ele>
        <time>2012-10-28T10:09:20Z</time>
      </trkpt>
      <trkpt lat="48.26481" lon="-0.35619">
        <ele>318</ele>
        <time>2012-10-28T10:09:30Z</time>
      </trkpt>
      <trkpt lat="48.26482" lon="-0.35642">
        <ele>318.5</ele>
        <time>2012-10-28T10:09:40Z</time>
      </trkpt>
      <trkpt lat="48.26483" lon="-0.35653">
        <ele>319.5</ele>
        <time>2012-10-28T10:09:46Z</time>
      </trkpt>
      <trkpt lat="48.26484" lon="-0.35662">
        <ele>319.5</ele>
        <time>2012-10-28T10:09:50Z</time>
      </trkpt>
      <trkpt lat="48.26485" lon="-0.35667">
        <ele>319.5</ele>
        <time>2012-10-28T10:09:52Z</time>
      </trkpt>
      <trkpt lat="48.26485" lon="-0.35688">
        <ele>321</ele>
        <time>2012-10-28T10:10:00Z</time>
      </trkpt>
      <trkpt lat="48.26486" lon="-0.35698">
        <ele>321</ele>
        <time>2012-10-28T10:10:04Z</time>
      </trkpt>
      <trkpt lat="48.26492" lon="-0.35712">
        <ele>320.5</ele>
        <time>2012-10-28T10:10:12Z</time>
      </trkpt>
      <trkpt lat="48.26495" lon="-0.3572">
        <ele>321</ele>
        <time>2012-10-28T10:10:16Z</time>
      </trkpt>
      <trkpt lat="48.26496" lon="-0.35736">
        <ele>322</ele>
        <time>2012-10-28T10:10:30Z</time>
      </trkpt>
      <trkpt lat="48.265" lon="-0.35764">
        <ele>318.5</ele>
        <time>2012-10-28T10:11:02Z</time>
      </trkpt>
      <trkpt lat="48.26505" lon="-0.35777">
        <ele>318</ele>
        <time>2012-10-28T10:11:06Z</time>
      </trkpt>
      <trkpt lat="48.26509" lon="-0.35789">
        <ele>317.5</ele>
        <time>2012-10-28T10:11:10Z</time>
      </trkpt>
      <trkpt lat="48.26513" lon="-0.35804">
        <ele>316.5</ele>
        <time>2012-10-28T10:11:18Z</time>
      </trkpt>
      <trkpt lat="48.26518" lon="-0.35817">
        <ele>316.5</ele>
        <time>2012-10-28T10:11:28Z</time>
      </trkpt>
      <trkpt lat="48.26521" lon="-0.35825">
        <ele>316.5</ele>
        <time>2012-10-28T10:11:30Z</time>
      </trkpt>
      <trkpt lat="48.26524" lon="-0.35835">
        <ele>316.5</ele>
        <time>2012-10-28T10:11:36Z</time>
      </trkpt>
      <trkpt lat="48.26529" lon="-0.35848">
        <ele>316</ele>
        <time>2012-10-28T10:11:48Z</time>
      </trkpt>
      <trkpt lat="48.26535" lon="-0.35866">
        <ele>316.5</ele>
        <time>2012-10-28T10:11:56Z</time>
      </trkpt>
      <trkpt lat="48.26537" lon="-0.35874">
        <ele>316</ele>
        <time>2012-10-28T10:12:02Z</time>
      </trkpt>
      <trkpt lat="48.26524" lon="-0.35918">
        <ele>313.5</ele>
        <time>2012-10-28T10:12:20Z</time>
      </trkpt>
      <trkpt lat="48.26511" lon="-0.35949">
        <ele>313</ele>
        <time>2012-10-28T10:12:32Z</time>
      </trkpt>
      <trkpt lat="48.26498" lon="-0.35955">
        <ele>312.5</ele>
        <time>2012-10-28T10:12:40Z</time>
      </trkpt>
      <trkpt lat="48.26491" lon="-0.35966">
        <ele>313</ele>
        <time>2012-10-28T10:12:48Z</time>
      </trkpt>
      <trkpt lat="48.26488" lon="-0.35973">
        <ele>313</ele>
        <time>2012-10-28T10:12:52Z</time>
      </trkpt>
      <trkpt lat="48.26484" lon="-0.35992">
        <ele>312.5</ele>
        <time>2012-10-28T10:13:00Z</time>
      </trkpt>
      <trkpt lat="48.26484" lon="-0.36001">
        <ele>312</ele>
        <time>2012-10-28T10:13:08Z</time>
      </trkpt>
      <trkpt lat="48.26465" lon="-0.35996">
        <ele>310.5</ele>
        <time>2012-10-28T10:13:22Z</time>
      </trkpt>
      <trkpt lat="48.26461" lon="-0.36011">
        <ele>309.5</ele>
        <time>2012-10-28T10:13:36Z</time>
      </trkpt>
      <trkpt lat="48.26463" lon="-0.36026">
        <ele>309</ele>
        <time>2012-10-28T10:13:40Z</time>
      </trkpt>
      <trkpt lat="48.26452" lon="-0.36044">
        <ele>309</ele>
        <time>2012-10-28T10:13:52Z</time>
      </trkpt>
      <trkpt lat="48.26443" lon="-0.36053">
        <ele>309</ele>
        <time>2012-10-28T10:14:02Z</time>
      </trkpt>
      <trkpt lat="48.26445" lon="-0.36069">
        <ele>309</ele>
        <time>2012-10-28T10:14:14Z</time>
      </trkpt>
      <trkpt lat="48.26439" lon="-0.36081">
        <ele>309</ele>
        <time>2012-10-28T10:14:22Z</time>
      </trkpt>
      <trkpt lat="48.26434" lon="-0.3609">
        <ele>308.5</ele>
        <time>2012-10-28T10:14:32Z</time>
      </trkpt>
      <trkpt lat="48.26435" lon="-0.36097">
        <ele>308.5</ele>
        <time>2012-10-28T10:14:38Z</time>
      </trkpt>
      <trkpt lat="48.26411" lon="-0.36128">
        <ele>302</ele>
        <time>2012-10-28T10:14:52Z</time>
      </trkpt>
      <trkpt lat="48.26398" lon="-0.36138">
        <ele>303.5</ele>
        <time>2012-10-28T10:15:04Z</time>
      </trkpt>
      <trkpt lat="48.26386" lon="-0.36137">
        <ele>301.5</ele>
        <time>2012-10-28T10:15:16Z</time>
      </trkpt>
      <trkpt lat="48.26374" lon="-0.3615">
        <ele>300.5</ele>
        <time>2012-10-28T10:15:26Z</time>
      </trkpt>
      <trkpt lat="48.26364" lon="-0.3617">
        <ele>300.5</ele>
        <time>2012-10-28T10:15:40Z</time>
      </trkpt>
      <trkpt lat="48.26357" lon="-0.36184">
        <ele>301.5</ele>
        <time>2012-10-28T10:15:50Z</time>
      </trkpt>
      <trkpt lat="48.26359" lon="-0.36192">
        <ele>300</ele>
        <time>2012-10-28T10:15:52Z</time>
      </trkpt>
      <trkpt lat="48.26347" lon="-0.36206">
        <ele>299</ele>
        <time>2012-10-28T10:16:02Z</time>
      </trkpt>
      <trkpt lat="48.26338" lon="-0.36219">
        <ele>298</ele>
        <time>2012-10-28T10:16:12Z</time>
      </trkpt>
      <trkpt lat="48.26331" lon="-0.36233">
        <ele>297</ele>
        <time>2012-10-28T10:16:22Z</time>
      </trkpt>
      <trkpt lat="48.26324" lon="-0.36265">
        <ele>298</ele>
        <time>2012-10-28T10:16:36Z</time>
      </trkpt>
      <trkpt lat="48.26314" lon="-0.36285">
        <ele>298.5</ele>
        <time>2012-10-28T10:16:48Z</time>
      </trkpt>
      <trkpt lat="48.26309" lon="-0.36303">
        <ele>299</ele>
        <time>2012-10-28T10:16:56Z</time>
      </trkpt>
      <trkpt lat="48.2631" lon="-0.36318">
        <ele>298</ele>
        <time>2012-10-28T10:17:04Z</time>
      </trkpt>
      <trkpt lat="48.26308" lon="-0.36334">
        <ele>298</ele>
        <time>2012-10-28T10:17:14Z</time>
      </trkpt>
      <trkpt lat="48.26304" lon="-0.36336">
        <ele>298</ele>
        <time>2012-10-28T10:17:16Z</time>
      </trkpt>
      <trkpt lat="48.26302" lon="-0.36349">
        <ele>298</ele>
        <time>2012-10-28T10:17:22Z</time>
      </trkpt>
      <trkpt lat="48.26298" lon="-0.36359">
        <ele>298</ele>
        <time>2012-10-28T10:17:28Z</time>
      </trkpt>
      <trkpt lat="48.26292" lon="-0.36369">
        <ele>297.5</ele>
        <time>2012-10-28T10:17:34Z</time>
      </trkpt>
      <trkpt lat="48.26286" lon="-0.36376">
        <ele>297.5</ele>
        <time>2012-10-28T10:17:40Z</time>
      </trkpt>
      <trkpt lat="48.26284" lon="-0.36397">
        <ele>296.5</ele>
        <time>2012-10-28T10:17:52Z</time>
      </trkpt>
      <trkpt lat="48.26282" lon="-0.36409">
        <ele>296</ele>
        <time>2012-10-28T10:17:58Z</time>
      </trkpt>
      <trkpt lat="48.26272" lon="-0.36433">
        <ele>296.5</ele>
        <time>2012-10-28T10:18:10Z</time>
      </trkpt>
      <trkpt lat="48.26266" lon="-0.36446">
        <ele>296</ele>
        <time>2012-10-28T10:18:20Z</time>
      </trkpt>
      <trkpt lat="48.26267" lon="-0.36461">
        <ele>296</ele>
        <time>2012-10-28T10:18:28Z</time>
      </trkpt>
      <trkpt lat="48.26262" lon="-0.36479">
        <ele>295.5</ele>
        <time>2012-10-28T10:18:36Z</time>
      </trkpt>
      <trkpt lat="48.26255" lon="-0.36501">
        <ele>290</ele>
        <time>2012-10-28T10:18:52Z</time>
      </trkpt>
      <trkpt lat="48.26249" lon="-0.36527">
        <ele>288.5</ele>
        <time>2012-10-28T10:19:06Z</time>
      </trkpt>
      <trkpt lat="48.26239" lon="-0.36546">
        <ele>286.5</ele>
        <time>2012-10-28T10:19:18Z</time>
      </trkpt>
      <trkpt lat="48.26233" lon="-0.36564">
        <ele>285.5</ele>
        <time>2012-10-28T10:19:26Z</time>
      </trkpt>
      <trkpt lat="48.26225" lon="-0.36584">
        <ele>285.5</ele>
        <time>2012-10-28T10:19:36Z</time>
      </trkpt>
      <trkpt lat="48.2622" lon="-0.36599">
        <ele>286</ele>
        <time>2012-10-28T10:19:42Z</time>
      </trkpt>
      <trkpt lat="48.26212" lon="-0.36609">
        <ele>284.5</ele>
        <time>2012-10-28T10:19:52Z</time>
      </trkpt>
      <trkpt lat="48.26209" lon="-0.3662">
        <ele>284.5</ele>
        <time>2012-10-28T10:19:56Z</time>
      </trkpt>
      <trkpt lat="48.26203" lon="-0.36642">
        <ele>282</ele>
        <time>2012-10-28T10:20:06Z</time>
      </trkpt>
      <trkpt lat="48.26193" lon="-0.36652">
        <ele>281</ele>
        <time>2012-10-28T10:20:16Z</time>
      </trkpt>
      <trkpt lat="48.2619" lon="-0.36666">
        <ele>281</ele>
        <time>2012-10-28T10:20:24Z</time>
      </trkpt>
      <trkpt lat="48.26185" lon="-0.36672">
        <ele>281</ele>
        <time>2012-10-28T10:20:28Z</time>
      </trkpt>
      <trkpt lat="48.26182" lon="-0.36675">
        <ele>281.5</ele>
        <time>2012-10-28T10:20:30Z</time>
      </trkpt>
      <trkpt lat="48.26175" lon="-0.3669">
        <ele>281</ele>
        <time>2012-10-28T10:20:40Z</time>
      </trkpt>
      <trkpt lat="48.26165" lon="-0.36721">
        <ele>279</ele>
        <time>2012-10-28T10:20:54Z</time>
      </trkpt>
      <trkpt lat="48.2616" lon="-0.3674">
        <ele>277</ele>
        <time>2012-10-28T10:21:08Z</time>
      </trkpt>
      <trkpt lat="48.26151" lon="-0.36765">
        <ele>276</ele>
        <time>2012-10-28T10:21:18Z</time>
      </trkpt>
      <trkpt lat="48.2614" lon="-0.36787">
        <ele>273</ele>
        <time>2012-10-28T10:21:32Z</time>
      </trkpt>
      <trkpt lat="48.26135" lon="-0.36817">
        <ele>272</ele>
        <time>2012-10-28T10:21:46Z</time>
      </trkpt>
      <trkpt lat="48.26133" lon="-0.36845">
        <ele>270.5</ele>
        <time>2012-10-28T10:22:00Z</time>
      </trkpt>
      <trkpt lat="48.26123" lon="-0.36861">
        <ele>269.5</ele>
        <time>2012-10-28T10:22:10Z</time>
      </trkpt>
      <trkpt lat="48.26117" lon="-0.36874">
        <ele>269</ele>
        <time>2012-10-28T10:22:20Z</time>
      </trkpt>
      <trkpt lat="48.26118" lon="-0.36884">
        <ele>268.5</ele>
        <time>2012-10-28T10:22:24Z</time>
      </trkpt>
      <trkpt lat="48.26114" lon="-0.36893">
        <ele>268.5</ele>
        <time>2012-10-28T10:22:30Z</time>
      </trkpt>
      <trkpt lat="48.26108" lon="-0.369">
        <ele>267</ele>
        <time>2012-10-28T10:22:36Z</time>
      </trkpt>
      <trkpt lat="48.26097" lon="-0.36921">
        <ele>267</ele>
        <time>2012-10-28T10:22:48Z</time>
      </trkpt>
      <trkpt lat="48.26085" lon="-0.36942">
        <ele>265.5</ele>
        <time>2012-10-28T10:22:58Z</time>
      </trkpt>
      <trkpt lat="48.26083" lon="-0.36953">
        <ele>263.5</ele>
        <time>2012-10-28T10:23:08Z</time>
      </trkpt>
      <trkpt lat="48.26069" lon="-0.36991">
        <ele>261.5</ele>
        <time>2012-10-28T10:23:32Z</time>
      </trkpt>
      <trkpt lat="48.26056" lon="-0.37003">
        <ele>261</ele>
        <time>2012-10-28T10:23:40Z</time>
      </trkpt>
      <trkpt lat="48.26055" lon="-0.37007">
        <ele>261</ele>
        <time>2012-10-28T10:23:42Z</time>
      </trkpt>
      <trkpt lat="48.2605" lon="-0.37015">
        <ele>260.5</ele>
        <time>2012-10-28T10:23:46Z</time>
      </trkpt>
      <trkpt lat="48.26045" lon="-0.37031">
        <ele>258</ele>
        <time>2012-10-28T10:23:58Z</time>
      </trkpt>
      <trkpt lat="48.26042" lon="-0.37047">
        <ele>258</ele>
        <time>2012-10-28T10:24:04Z</time>
      </trkpt>
      <trkpt lat="48.26038" lon="-0.37065">
        <ele>252.5</ele>
        <time>2012-10-28T10:24:22Z</time>
      </trkpt>
      <trkpt lat="48.2604" lon="-0.3708">
        <ele>251</ele>
        <time>2012-10-28T10:24:28Z</time>
      </trkpt>
      <trkpt lat="48.26037" lon="-0.37086">
        <ele>251</ele>
        <time>2012-10-28T10:24:32Z</time>
      </trkpt>
      <trkpt lat="48.26031" lon="-0.37096">
        <ele>251</ele>
        <time>2012-10-28T10:24:38Z</time>
      </trkpt>
      <trkpt lat="48.26028" lon="-0.37101">
        <ele>251</ele>
        <time>2012-10-28T10:24:40Z</time>
      </trkpt>
      <trkpt lat="48.26025" lon="-0.37105">
        <ele>250.5</ele>
        <time>2012-10-28T10:24:42Z</time>
      </trkpt>
      <trkpt lat="48.26021" lon="-0.37111">
        <ele>250.5</ele>
        <time>2012-10-28T10:24:46Z</time>
      </trkpt>
      <trkpt lat="48.26015" lon="-0.37115">
        <ele>249</ele>
        <time>2012-10-28T10:24:54Z</time>
      </trkpt>
      <trkpt lat="48.26009" lon="-0.37114">
        <ele>246.5</ele>
        <time>2012-10-28T10:24:58Z</time>
      </trkpt>
      <trkpt lat="48.26003" lon="-0.37117">
        <ele>246</ele>
        <time>2012-10-28T10:25:00Z</time>
      </trkpt>
      <trkpt lat="48.25989" lon="-0.37124">
        <ele>245.5</ele>
        <time>2012-10-28T10:25:08Z</time>
      </trkpt>
      <trkpt lat="48.25982" lon="-0.37123">
        <ele>246</ele>
        <time>2012-10-28T10:25:20Z</time>
      </trkpt>
      <trkpt lat="48.25954" lon="-0.37119">
        <ele>243</ele>
        <time>2012-10-28T10:25:40Z</time>
      </trkpt>
      <trkpt lat="48.25939" lon="-0.37114">
        <ele>241</ele>
        <time>2012-10-28T10:25:50Z</time>
      </trkpt>
      <trkpt lat="48.25933" lon="-0.37111">
        <ele>241.5</ele>
        <time>2012-10-28T10:25:54Z</time>
      </trkpt>
      <trkpt lat="48.25922" lon="-0.37104">
        <ele>241</ele>
        <time>2012-10-28T10:26:00Z</time>
      </trkpt>
      <trkpt lat="48.25918" lon="-0.37102">
        <ele>243</ele>
        <time>2012-10-28T10:26:02Z</time>
      </trkpt>
      <trkpt lat="48.25914" lon="-0.37101">
        <ele>239</ele>
        <time>2012-10-28T10:26:06Z</time>
      </trkpt>
      <trkpt lat="48.25906" lon="-0.37105">
        <ele>238</ele>
        <time>2012-10-28T10:26:12Z</time>
      </trkpt>
      <trkpt lat="48.25902" lon="-0.37104">
        <ele>237</ele>
        <time>2012-10-28T10:26:16Z</time>
      </trkpt>
      <trkpt lat="48.25894" lon="-0.37087">
        <ele>235</ele>
        <time>2012-10-28T10:26:24Z</time>
      </trkpt>
      <trkpt lat="48.25892" lon="-0.37081">
        <ele>234.5</ele>
        <time>2012-10-28T10:26:28Z</time>
      </trkpt>
      <trkpt lat="48.25885" lon="-0.37077">
        <ele>234</ele>
        <time>2012-10-28T10:26:40Z</time>
      </trkpt>
      <trkpt lat="48.2588" lon="-0.37076">
        <ele>235</ele>
        <time>2012-10-28T10:26:44Z</time>
      </trkpt>
      <trkpt lat="48.25866" lon="-0.3708">
        <ele>236</ele>
        <time>2012-10-28T10:26:52Z</time>
      </trkpt>
      <trkpt lat="48.25864" lon="-0.37081">
        <ele>235.5</ele>
        <time>2012-10-28T10:26:54Z</time>
      </trkpt>
      <trkpt lat="48.2586" lon="-0.37081">
        <ele>233</ele>
        <time>2012-10-28T10:26:58Z</time>
      </trkpt>
      <trkpt lat="48.2585" lon="-0.37095">
        <ele>233</ele>
        <time>2012-10-28T10:27:08Z</time>
      </trkpt>
      <trkpt lat="48.25838" lon="-0.37097">
        <ele>234</ele>
        <time>2012-10-28T10:27:16Z</time>
      </trkpt>
      <trkpt lat="48.25833" lon="-0.37096">
        <ele>233</ele>
        <time>2012-10-28T10:27:20Z</time>
      </trkpt>
      <trkpt lat="48.25826" lon="-0.37094">
        <ele>231.5</ele>
        <time>2012-10-28T10:27:26Z</time>
      </trkpt>
      <trkpt lat="48.25821" lon="-0.37096">
        <ele>231</ele>
        <time>2012-10-28T10:27:30Z</time>
      </trkpt>
      <trkpt lat="48.25812" lon="-0.3709">
        <ele>232.5</ele>
        <time>2012-10-28T10:27:44Z</time>
      </trkpt>
      <trkpt lat="48.25806" lon="-0.3709">
        <ele>235</ele>
        <time>2012-10-28T10:27:48Z</time>
      </trkpt>
      <trkpt lat="48.25794" lon="-0.37089">
        <ele>235.5</ele>
        <time>2012-10-28T10:27:58Z</time>
      </trkpt>
      <trkpt lat="48.2579" lon="-0.37089">
        <ele>235.5</ele>
        <time>2012-10-28T10:28:00Z</time>
      </trkpt>
      <trkpt lat="48.25774" lon="-0.37079">
        <ele>235</ele>
        <time>2012-10-28T10:28:12Z</time>
      </trkpt>
      <trkpt lat="48.25767" lon="-0.37068">
        <ele>234.5</ele>
        <time>2012-10-28T10:28:20Z</time>
      </trkpt>
      <trkpt lat="48.25763" lon="-0.3706">
        <ele>231</ele>
        <time>2012-10-28T10:28:24Z</time>
      </trkpt>
      <trkpt lat="48.25753" lon="-0.3706">
        <ele>231.5</ele>
        <time>2012-10-28T10:28:30Z</time>
      </trkpt>
      <trkpt lat="48.25746" lon="-0.37049">
        <ele>227.5</ele>
        <time>2012-10-28T10:28:38Z</time>
      </trkpt>
      <trkpt lat="48.25736" lon="-0.37037">
        <ele>228.5</ele>
        <time>2012-10-28T10:28:48Z</time>
      </trkpt>
      <trkpt lat="48.25723" lon="-0.37027">
        <ele>229.5</ele>
        <time>2012-10-28T10:28:58Z</time>
      </trkpt>
      <trkpt lat="48.25717" lon="-0.37024">
        <ele>231.5</ele>
        <time>2012-10-28T10:29:02Z</time>
      </trkpt>
      <trkpt lat="48.25712" lon="-0.37021">
        <ele>231</ele>
        <time>2012-10-28T10:29:10Z</time>
      </trkpt>
      <trkpt lat="48.25708" lon="-0.37015">
        <ele>230.5</ele>
        <time>2012-10-28T10:29:14Z</time>
      </trkpt>
      <trkpt lat="48.257" lon="-0.37013">
        <ele>229.5</ele>
        <time>2012-10-28T10:29:20Z</time>
      </trkpt>
      <trkpt lat="48.25697" lon="-0.37011">
        <ele>230</ele>
        <time>2012-10-28T10:29:22Z</time>
      </trkpt>
      <trkpt lat="48.25693" lon="-0.37009">
        <ele>230.5</ele>
        <time>2012-10-28T10:29:26Z</time>
      </trkpt>
      <trkpt lat="48.25669" lon="-0.37006">
        <ele>230</ele>
        <time>2012-10-28T10:29:36Z</time>
      </trkpt>
      <trkpt lat="48.25664" lon="-0.37003">
        <ele>228</ele>
        <time>2012-10-28T10:29:40Z</time>
      </trkpt>
      <trkpt lat="48.25663" lon="-0.3699">
        <ele>230</ele>
        <time>2012-10-28T10:29:46Z</time>
      </trkpt>
      <trkpt lat="48.25659" lon="-0.36978">
        <ele>230.5</ele>
        <time>2012-10-28T10:29:54Z</time>
      </trkpt>
      <trkpt lat="48.25652" lon="-0.36969">
        <ele>230.5</ele>
        <time>2012-10-28T10:30:04Z</time>
      </trkpt>
      <trkpt lat="48.25644" lon="-0.36961">
        <ele>229</ele>
        <time>2012-10-28T10:30:16Z</time>
      </trkpt>
      <trkpt lat="48.25639" lon="-0.3695">
        <ele>228.5</ele>
        <time>2012-10-28T10:30:22Z</time>
      </trkpt>
      <trkpt lat="48.25634" lon="-0.36949">
        <ele>227.5</ele>
        <time>2012-10-28T10:30:26Z</time>
      </trkpt>
      <trkpt lat="48.25631" lon="-0.36949">
        <ele>226.5</ele>
        <time>2012-10-28T10:30:28Z</time>
      </trkpt>
      <trkpt lat="48.25623" lon="-0.36942">
        <ele>225</ele>
        <time>2012-10-28T10:30:36Z</time>
      </trkpt>
      <trkpt lat="48.2562" lon="-0.3694">
        <ele>224</ele>
        <time>2012-10-28T10:30:38Z</time>
      </trkpt>
      <trkpt lat="48.25611" lon="-0.3693">
        <ele>222</ele>
        <time>2012-10-28T10:30:46Z</time>
      </trkpt>
      <trkpt lat="48.25607" lon="-0.36923">
        <ele>220.5</ele>
        <time>2012-10-28T10:30:50Z</time>
      </trkpt>
      <trkpt lat="48.256" lon="-0.36914">
        <ele>219</ele>
        <time>2012-10-28T10:30:58Z</time>
      </trkpt>
      <trkpt lat="48.25594" lon="-0.36909">
        <ele>219</ele>
        <time>2012-10-28T10:31:02Z</time>
      </trkpt>
      <trkpt lat="48.25586" lon="-0.36902">
        <ele>220</ele>
        <time>2012-10-28T10:31:08Z</time>
      </trkpt>
      <trkpt lat="48.25583" lon="-0.369">
        <ele>220</ele>
        <time>2012-10-28T10:31:10Z</time>
      </trkpt>
      <trkpt lat="48.25578" lon="-0.36897">
        <ele>222</ele>
        <time>2012-10-28T10:31:14Z</time>
      </trkpt>
      <trkpt lat="48.25572" lon="-0.36887">
        <ele>222.5</ele>
        <time>2012-10-28T10:31:22Z</time>
      </trkpt>
      <trkpt lat="48.25564" lon="-0.36886">
        <ele>224</ele>
        <time>2012-10-28T10:31:28Z</time>
      </trkpt>
      <trkpt lat="48.25551" lon="-0.36897">
        <ele>226.5</ele>
        <time>2012-10-28T10:31:36Z</time>
      </trkpt>
      <trkpt lat="48.25547" lon="-0.36902">
        <ele>226</ele>
        <time>2012-10-28T10:31:40Z</time>
      </trkpt>
      <trkpt lat="48.25544" lon="-0.36909">
        <ele>226.5</ele>
        <time>2012-10-28T10:31:46Z</time>
      </trkpt>
      <trkpt lat="48.25544" lon="-0.36917">
        <ele>227.5</ele>
        <time>2012-10-28T10:31:52Z</time>
      </trkpt>
      <trkpt lat="48.2554" lon="-0.36925">
        <ele>227</ele>
        <time>2012-10-28T10:32:00Z</time>
      </trkpt>
      <trkpt lat="48.25534" lon="-0.36938">
        <ele>227.5</ele>
        <time>2012-10-28T10:32:08Z</time>
      </trkpt>
      <trkpt lat="48.25529" lon="-0.36943">
        <ele>224.5</ele>
        <time>2012-10-28T10:32:16Z</time>
      </trkpt>
      <trkpt lat="48.25514" lon="-0.36967">
        <ele>229.5</ele>
        <time>2012-10-28T10:32:28Z</time>
      </trkpt>
      <trkpt lat="48.25505" lon="-0.36973">
        <ele>230</ele>
        <time>2012-10-28T10:32:38Z</time>
      </trkpt>
      <trkpt lat="48.25497" lon="-0.36977">
        <ele>230</ele>
        <time>2012-10-28T10:32:44Z</time>
      </trkpt>
      <trkpt lat="48.25483" lon="-0.36976">
        <ele>229</ele>
        <time>2012-10-28T10:32:50Z</time>
      </trkpt>
      <trkpt lat="48.25477" lon="-0.3698">
        <ele>227.5</ele>
        <time>2012-10-28T10:32:54Z</time>
      </trkpt>
      <trkpt lat="48.25468" lon="-0.36992">
        <ele>227</ele>
        <time>2012-10-28T10:33:02Z</time>
      </trkpt>
      <trkpt lat="48.25457" lon="-0.37002">
        <ele>232</ele>
        <time>2012-10-28T10:33:08Z</time>
      </trkpt>
      <trkpt lat="48.2545" lon="-0.37003">
        <ele>232.5</ele>
        <time>2012-10-28T10:33:12Z</time>
      </trkpt>
      <trkpt lat="48.2544" lon="-0.3701">
        <ele>233</ele>
        <time>2012-10-28T10:33:22Z</time>
      </trkpt>
      <trkpt lat="48.25434" lon="-0.37015">
        <ele>231</ele>
        <time>2012-10-28T10:33:30Z</time>
      </trkpt>
      <trkpt lat="48.25432" lon="-0.37017">
        <ele>230.5</ele>
        <time>2012-10-28T10:33:34Z</time>
      </trkpt>
      <trkpt lat="48.25427" lon="-0.37025">
        <ele>232</ele>
        <time>2012-10-28T10:33:40Z</time>
      </trkpt>
      <trkpt lat="48.25422" lon="-0.37029">
        <ele>232.5</ele>
        <time>2012-10-28T10:33:44Z</time>
      </trkpt>
      <trkpt lat="48.25416" lon="-0.37027">
        <ele>232.5</ele>
        <time>2012-10-28T10:33:50Z</time>
      </trkpt>
      <trkpt lat="48.25415" lon="-0.37018">
        <ele>230.5</ele>
        <time>2012-10-28T10:33:54Z</time>
      </trkpt>
      <trkpt lat="48.25415" lon="-0.37014">
        <ele>229</ele>
        <time>2012-10-28T10:33:56Z</time>
      </trkpt>
      <trkpt lat="48.25412" lon="-0.37005">
        <ele>227</ele>
        <time>2012-10-28T10:34:02Z</time>
      </trkpt>
      <trkpt lat="48.25408" lon="-0.36999">
        <ele>226</ele>
        <time>2012-10-28T10:34:06Z</time>
      </trkpt>
      <trkpt lat="48.25404" lon="-0.36992">
        <ele>226.5</ele>
        <time>2012-10-28T10:34:10Z</time>
      </trkpt>
      <trkpt lat="48.25402" lon="-0.36985">
        <ele>227.5</ele>
        <time>2012-10-28T10:34:16Z</time>
      </trkpt>
      <trkpt lat="48.25392" lon="-0.36987">
        <ele>228</ele>
        <time>2012-10-28T10:34:46Z</time>
      </trkpt>
      <trkpt lat="48.25389" lon="-0.36992">
        <ele>226.5</ele>
        <time>2012-10-28T10:34:52Z</time>
      </trkpt>
      <trkpt lat="48.2538" lon="-0.3699">
        <ele>230</ele>
        <time>2012-10-28T10:34:56Z</time>
      </trkpt>
      <trkpt lat="48.25378" lon="-0.3698">
        <ele>230</ele>
        <time>2012-10-28T10:35:02Z</time>
      </trkpt>
      <trkpt lat="48.25374" lon="-0.36963">
        <ele>228.5</ele>
        <time>2012-10-28T10:35:12Z</time>
      </trkpt>
      <trkpt lat="48.25371" lon="-0.36954">
        <ele>228</ele>
        <time>2012-10-28T10:35:16Z</time>
      </trkpt>
      <trkpt lat="48.2537" lon="-0.36941">
        <ele>227</ele>
        <time>2012-10-28T10:35:22Z</time>
      </trkpt>
      <trkpt lat="48.25368" lon="-0.36934">
        <ele>226.5</ele>
        <time>2012-10-28T10:35:28Z</time>
      </trkpt>
      <trkpt lat="48.2536" lon="-0.36928">
        <ele>226.5</ele>
        <time>2012-10-28T10:35:35Z</time>
      </trkpt>
      <trkpt lat="48.25349" lon="-0.36924">
        <ele>225</ele>
        <time>2012-10-28T10:35:43Z</time>
      </trkpt>
      <trkpt lat="48.25338" lon="-0.36927">
        <ele>220</ele>
        <time>2012-10-28T10:35:53Z</time>
      </trkpt>
      <trkpt lat="48.2533" lon="-0.36939">
        <ele>219.5</ele>
        <time>2012-10-28T10:36:05Z</time>
      </trkpt>
      <trkpt lat="48.25327" lon="-0.3695">
        <ele>217</ele>
        <time>2012-10-28T10:36:13Z</time>
      </trkpt>
      <trkpt lat="48.25323" lon="-0.3696">
        <ele>217</ele>
        <time>2012-10-28T10:36:17Z</time>
      </trkpt>
      <trkpt lat="48.25314" lon="-0.36967">
        <ele>217</ele>
        <time>2012-10-28T10:36:23Z</time>
      </trkpt>
      <trkpt lat="48.25304" lon="-0.36971">
        <ele>218.5</ele>
        <time>2012-10-28T10:36:29Z</time>
      </trkpt>
      <trkpt lat="48.25291" lon="-0.36973">
        <ele>221</ele>
        <time>2012-10-28T10:36:35Z</time>
      </trkpt>
      <trkpt lat="48.25282" lon="-0.36979">
        <ele>223</ele>
        <time>2012-10-28T10:36:43Z</time>
      </trkpt>
      <trkpt lat="48.25273" lon="-0.36986">
        <ele>228.5</ele>
        <time>2012-10-28T10:36:57Z</time>
      </trkpt>
      <trkpt lat="48.25257" lon="-0.36991">
        <ele>226</ele>
        <time>2012-10-28T10:37:09Z</time>
      </trkpt>
      <trkpt lat="48.25254" lon="-0.36992">
        <ele>226.5</ele>
        <time>2012-10-28T10:37:11Z</time>
      </trkpt>
      <trkpt lat="48.25245" lon="-0.36978">
        <ele>227.5</ele>
        <time>2012-10-28T10:37:21Z</time>
      </trkpt>
      <trkpt lat="48.25241" lon="-0.36967">
        <ele>227.5</ele>
        <time>2012-10-28T10:37:27Z</time>
      </trkpt>
      <trkpt lat="48.25244" lon="-0.36958">
        <ele>224.5</ele>
        <time>2012-10-28T10:37:31Z</time>
      </trkpt>
      <trkpt lat="48.2524" lon="-0.36946">
        <ele>221.5</ele>
        <time>2012-10-28T10:37:39Z</time>
      </trkpt>
      <trkpt lat="48.25237" lon="-0.36937">
        <ele>220.5</ele>
        <time>2012-10-28T10:37:43Z</time>
      </trkpt>
      <trkpt lat="48.25234" lon="-0.36907">
        <ele>219.5</ele>
        <time>2012-10-28T10:37:57Z</time>
      </trkpt>
      <trkpt lat="48.25233" lon="-0.36894">
        <ele>218.5</ele>
        <time>2012-10-28T10:38:03Z</time>
      </trkpt>
      <trkpt lat="48.25233" lon="-0.36887">
        <ele>218.5</ele>
        <time>2012-10-28T10:38:07Z</time>
      </trkpt>
      <trkpt lat="48.25229" lon="-0.36868">
        <ele>219.5</ele>
        <time>2012-10-28T10:38:19Z</time>
      </trkpt>
      <trkpt lat="48.25222" lon="-0.36865">
        <ele>222.5</ele>
        <time>2012-10-28T10:38:29Z</time>
      </trkpt>
      <trkpt lat="48.25217" lon="-0.36866">
        <ele>222.5</ele>
        <time>2012-10-28T10:38:41Z</time>
      </trkpt>
      <trkpt lat="48.25211" lon="-0.36869">
        <ele>223</ele>
        <time>2012-10-28T10:38:45Z</time>
      </trkpt>
      <trkpt lat="48.25207" lon="-0.36874">
        <ele>224</ele>
        <time>2012-10-28T10:38:49Z</time>
      </trkpt>
      <trkpt lat="48.25201" lon="-0.36885">
        <ele>225</ele>
        <time>2012-10-28T10:38:55Z</time>
      </trkpt>
      <trkpt lat="48.252" lon="-0.36895">
        <ele>225</ele>
        <time>2012-10-28T10:38:59Z</time>
      </trkpt>
      <trkpt lat="48.25209" lon="-0.36911">
        <ele>222.5</ele>
        <time>2012-10-28T10:39:09Z</time>
      </trkpt>
      <trkpt lat="48.25218" lon="-0.36926">
        <ele>223.5</ele>
        <time>2012-10-28T10:39:19Z</time>
      </trkpt>
      <trkpt lat="48.25219" lon="-0.36929">
        <ele>224</ele>
        <time>2012-10-28T10:39:23Z</time>
      </trkpt>
      <trkpt lat="48.25224" lon="-0.36942">
        <ele>222.5</ele>
        <time>2012-10-28T10:39:33Z</time>
      </trkpt>
      <trkpt lat="48.25225" lon="-0.36946">
        <ele>223</ele>
        <time>2012-10-28T10:39:35Z</time>
      </trkpt>
      <trkpt lat="48.25229" lon="-0.36974">
        <ele>226.5</ele>
        <time>2012-10-28T10:39:45Z</time>
      </trkpt>
      <trkpt lat="48.25217" lon="-0.36981">
        <ele>227.5</ele>
        <time>2012-10-28T10:39:53Z</time>
      </trkpt>
      <trkpt lat="48.25212" lon="-0.36978">
        <ele>226</ele>
        <time>2012-10-28T10:39:57Z</time>
      </trkpt>
      <trkpt lat="48.25189" lon="-0.36978">
        <ele>221.5</ele>
        <time>2012-10-28T10:40:07Z</time>
      </trkpt>
      <trkpt lat="48.25182" lon="-0.36982">
        <ele>220.5</ele>
        <time>2012-10-28T10:40:11Z</time>
      </trkpt>
      <trkpt lat="48.25178" lon="-0.36986">
        <ele>218.5</ele>
        <time>2012-10-28T10:40:15Z</time>
      </trkpt>
      <trkpt lat="48.25173" lon="-0.37001">
        <ele>219.5</ele>
        <time>2012-10-28T10:40:33Z</time>
      </trkpt>
      <trkpt lat="48.25153" lon="-0.37009">
        <ele>221</ele>
        <time>2012-10-28T10:40:47Z</time>
      </trkpt>
      <trkpt lat="48.25147" lon="-0.36995">
        <ele>228</ele>
        <time>2012-10-28T10:41:03Z</time>
      </trkpt>
      <trkpt lat="48.25134" lon="-0.36962">
        <ele>226</ele>
        <time>2012-10-28T10:41:19Z</time>
      </trkpt>
      <trkpt lat="48.25131" lon="-0.3695">
        <ele>227.5</ele>
        <time>2012-10-28T10:41:27Z</time>
      </trkpt>
      <trkpt lat="48.25128" lon="-0.36933">
        <ele>229.5</ele>
        <time>2012-10-28T10:41:35Z</time>
      </trkpt>
      <trkpt lat="48.25126" lon="-0.36928">
        <ele>229.5</ele>
        <time>2012-10-28T10:41:37Z</time>
      </trkpt>
      <trkpt lat="48.25122" lon="-0.36909">
        <ele>232</ele>
        <time>2012-10-28T10:41:49Z</time>
      </trkpt>
      <trkpt lat="48.25115" lon="-0.36899">
        <ele>232.5</ele>
        <time>2012-10-28T10:41:55Z</time>
      </trkpt>
      <trkpt lat="48.25113" lon="-0.36896">
        <ele>233</ele>
        <time>2012-10-28T10:41:57Z</time>
      </trkpt>
      <trkpt lat="48.2511" lon="-0.36887">
        <ele>234</ele>
        <time>2012-10-28T10:42:01Z</time>
      </trkpt>
      <trkpt lat="48.25108" lon="-0.36882">
        <ele>234.5</ele>
        <time>2012-10-28T10:42:05Z</time>
      </trkpt>
      <trkpt lat="48.25099" lon="-0.3687">
        <ele>234</ele>
        <time>2012-10-28T10:42:13Z</time>
      </trkpt>
      <trkpt lat="48.25097" lon="-0.36867">
        <ele>234</ele>
        <time>2012-10-28T10:42:15Z</time>
      </trkpt>
      <trkpt lat="48.25085" lon="-0.3686">
        <ele>234</ele>
        <time>2012-10-28T10:42:21Z</time>
      </trkpt>
      <trkpt lat="48.25083" lon="-0.3685">
        <ele>234</ele>
        <time>2012-10-28T10:42:27Z</time>
      </trkpt>
      <trkpt lat="48.25087" lon="-0.36837">
        <ele>232.5</ele>
        <time>2012-10-28T10:42:35Z</time>
      </trkpt>
      <trkpt lat="48.25087" lon="-0.36827">
        <ele>232</ele>
        <time>2012-10-28T10:42:45Z</time>
      </trkpt>
      <trkpt lat="48.25085" lon="-0.36807">
        <ele>231.5</ele>
        <time>2012-10-28T10:42:53Z</time>
      </trkpt>
      <trkpt lat="48.25081" lon="-0.36796">
        <ele>233</ele>
        <time>2012-10-28T10:42:59Z</time>
      </trkpt>
      <trkpt lat="48.25078" lon="-0.36776">
        <ele>233</ele>
        <time>2012-10-28T10:43:11Z</time>
      </trkpt>
      <trkpt lat="48.25071" lon="-0.3676">
        <ele>232</ele>
        <time>2012-10-28T10:43:21Z</time>
      </trkpt>
      <trkpt lat="48.25071" lon="-0.36756">
        <ele>232</ele>
        <time>2012-10-28T10:43:23Z</time>
      </trkpt>
      <trkpt lat="48.25064" lon="-0.36733">
        <ele>232</ele>
        <time>2012-10-28T10:43:35Z</time>
      </trkpt>
      <trkpt lat="48.25062" lon="-0.36706">
        <ele>231</ele>
        <time>2012-10-28T10:43:47Z</time>
      </trkpt>
      <trkpt lat="48.25061" lon="-0.36697">
        <ele>229</ele>
        <time>2012-10-28T10:43:53Z</time>
      </trkpt>
      <trkpt lat="48.2506" lon="-0.36691">
        <ele>227</ele>
        <time>2012-10-28T10:43:57Z</time>
      </trkpt>
      <trkpt lat="48.25058" lon="-0.36678">
        <ele>227</ele>
        <time>2012-10-28T10:44:05Z</time>
      </trkpt>
      <trkpt lat="48.25058" lon="-0.36672">
        <ele>230</ele>
        <time>2012-10-28T10:44:07Z</time>
      </trkpt>
      <trkpt lat="48.25065" lon="-0.36652">
        <ele>230</ele>
        <time>2012-10-28T10:44:21Z</time>
      </trkpt>
      <trkpt lat="48.25074" lon="-0.36628">
        <ele>229</ele>
        <time>2012-10-28T10:44:35Z</time>
      </trkpt>
      <trkpt lat="48.25081" lon="-0.36615">
        <ele>228.5</ele>
        <time>2012-10-28T10:44:43Z</time>
      </trkpt>
      <trkpt lat="48.25095" lon="-0.36608">
        <ele>230</ele>
        <time>2012-10-28T10:44:53Z</time>
      </trkpt>
      <trkpt lat="48.25109" lon="-0.36592">
        <ele>231.5</ele>
        <time>2012-10-28T10:45:05Z</time>
      </trkpt>
      <trkpt lat="48.25118" lon="-0.3658">
        <ele>235.5</ele>
        <time>2012-10-28T10:45:15Z</time>
      </trkpt>
      <trkpt lat="48.25123" lon="-0.36576">
        <ele>235.5</ele>
        <time>2012-10-28T10:45:19Z</time>
      </trkpt>
      <trkpt lat="48.25143" lon="-0.36557">
        <ele>235</ele>
        <time>2012-10-28T10:45:35Z</time>
      </trkpt>
      <trkpt lat="48.25156" lon="-0.36542">
        <ele>235</ele>
        <time>2012-10-28T10:45:47Z</time>
      </trkpt>
      <trkpt lat="48.25157" lon="-0.3651">
        <ele>236</ele>
        <time>2012-10-28T10:46:03Z</time>
      </trkpt>
      <trkpt lat="48.25161" lon="-0.36501">
        <ele>235.5</ele>
        <time>2012-10-28T10:46:17Z</time>
      </trkpt>
      <trkpt lat="48.25154" lon="-0.36473">
        <ele>235.5</ele>
        <time>2012-10-28T10:46:35Z</time>
      </trkpt>
      <trkpt lat="48.25154" lon="-0.36473">
        <ele>235.5</ele>
        <time>2012-10-28T10:46:57Z</time>
      </trkpt>
      <trkpt lat="48.25161" lon="-0.36481">
        <ele>234</ele>
        <time>2012-10-28T10:47:01Z</time>
      </trkpt>
      <trkpt lat="48.25163" lon="-0.36483">
        <ele>234.5</ele>
        <time>2012-10-28T10:47:03Z</time>
      </trkpt>
      <trkpt lat="48.25169" lon="-0.36478">
        <ele>234.5</ele>
        <time>2012-10-28T10:47:11Z</time>
      </trkpt>
      <trkpt lat="48.25169" lon="-0.36478">
        <ele>234.5</ele>
        <time>2012-10-28T10:47:27Z</time>
      </trkpt>
      <trkpt lat="48.25163" lon="-0.36479">
        <ele>234.5</ele>
        <time>2012-10-28T10:47:39Z</time>
      </trkpt>
      <trkpt lat="48.25129" lon="-0.36475">
        <ele>234.5</ele>
        <time>2012-10-28T10:47:53Z</time>
      </trkpt>
      <trkpt lat="48.25129" lon="-0.36475">
        <ele>234.5</ele>
        <time>2012-10-28T10:48:11Z</time>
      </trkpt>
      <trkpt lat="48.25153" lon="-0.3648">
        <ele>234</ele>
        <time>2012-10-28T10:48:19Z</time>
      </trkpt>
      <trkpt lat="48.25161" lon="-0.36475">
        <ele>234.5</ele>
        <time>2012-10-28T10:48:37Z</time>
      </trkpt>
      <trkpt lat="48.2518" lon="-0.36464">
        <ele>231</ele>
        <time>2012-10-28T10:49:07Z</time>
      </trkpt>
      <trkpt lat="48.25184" lon="-0.36458">
        <ele>231</ele>
        <time>2012-10-28T10:49:13Z</time>
      </trkpt>
      <trkpt lat="48.25178" lon="-0.36446">
        <ele>228.5</ele>
        <time>2012-10-28T10:49:25Z</time>
      </trkpt>
      <trkpt lat="48.2517" lon="-0.36439">
        <ele>229.5</ele>
        <time>2012-10-28T10:49:33Z</time>
      </trkpt>
      <trkpt lat="48.25146" lon="-0.3643">
        <ele>230</ele>
        <time>2012-10-28T10:49:45Z</time>
      </trkpt>
      <trkpt lat="48.25149" lon="-0.36414">
        <ele>229</ele>
        <time>2012-10-28T10:49:53Z</time>
      </trkpt>
      <trkpt lat="48.25149" lon="-0.36389">
        <ele>228.5</ele>
        <time>2012-10-28T10:50:03Z</time>
      </trkpt>
      <trkpt lat="48.25132" lon="-0.36362">
        <ele>230</ele>
        <time>2012-10-28T10:50:17Z</time>
      </trkpt>
      <trkpt lat="48.25126" lon="-0.36359">
        <ele>229.5</ele>
        <time>2012-10-28T10:50:25Z</time>
      </trkpt>
      <trkpt lat="48.25119" lon="-0.3635">
        <ele>229.5</ele>
        <time>2012-10-28T10:50:33Z</time>
      </trkpt>
      <trkpt lat="48.25106" lon="-0.36332">
        <ele>233.5</ele>
        <time>2012-10-28T10:50:41Z</time>
      </trkpt>
      <trkpt lat="48.25105" lon="-0.36324">
        <ele>236</ele>
        <time>2012-10-28T10:50:45Z</time>
      </trkpt>
      <trkpt lat="48.25101" lon="-0.36309">
        <ele>236.5</ele>
        <time>2012-10-28T10:50:53Z</time>
      </trkpt>
      <trkpt lat="48.251" lon="-0.36303">
        <ele>235.5</ele>
        <time>2012-10-28T10:50:55Z</time>
      </trkpt>
      <trkpt lat="48.25085" lon="-0.36287">
        <ele>232</ele>
        <time>2012-10-28T10:51:07Z</time>
      </trkpt>
      <trkpt lat="48.25077" lon="-0.36291">
        <ele>232</ele>
        <time>2012-10-28T10:51:09Z</time>
      </trkpt>
      <trkpt lat="48.25065" lon="-0.36288">
        <ele>232</ele>
        <time>2012-10-28T10:51:17Z</time>
      </trkpt>
      <trkpt lat="48.25072" lon="-0.3627">
        <ele>231.5</ele>
        <time>2012-10-28T10:51:29Z</time>
      </trkpt>
      <trkpt lat="48.25073" lon="-0.36258">
        <ele>235</ele>
        <time>2012-10-28T10:51:35Z</time>
      </trkpt>
      <trkpt lat="48.25074" lon="-0.36248">
        <ele>234.5</ele>
        <time>2012-10-28T10:51:41Z</time>
      </trkpt>
      <trkpt lat="48.2509" lon="-0.36251">
        <ele>233</ele>
        <time>2012-10-28T10:51:49Z</time>
      </trkpt>
      <trkpt lat="48.25079" lon="-0.36232">
        <ele>232.5</ele>
        <time>2012-10-28T10:52:25Z</time>
      </trkpt>
      <trkpt lat="48.25091" lon="-0.36216">
        <ele>232.5</ele>
        <time>2012-10-28T10:52:35Z</time>
      </trkpt>
      <trkpt lat="48.25109" lon="-0.36196">
        <ele>232</ele>
        <time>2012-10-28T10:52:51Z</time>
      </trkpt>
      <trkpt lat="48.25114" lon="-0.36188">
        <ele>231.5</ele>
        <time>2012-10-28T10:52:55Z</time>
      </trkpt>
      <trkpt lat="48.25119" lon="-0.3618">
        <ele>231.5</ele>
        <time>2012-10-28T10:53:01Z</time>
      </trkpt>
      <trkpt lat="48.25124" lon="-0.36169">
        <ele>230.5</ele>
        <time>2012-10-28T10:53:05Z</time>
      </trkpt>
      <trkpt lat="48.25131" lon="-0.36167">
        <ele>229.5</ele>
        <time>2012-10-28T10:53:17Z</time>
      </trkpt>
      <trkpt lat="48.25137" lon="-0.36151">
        <ele>226</ele>
        <time>2012-10-28T10:53:27Z</time>
      </trkpt>
      <trkpt lat="48.25138" lon="-0.3614">
        <ele>225.5</ele>
        <time>2012-10-28T10:53:33Z</time>
      </trkpt>
      <trkpt lat="48.25141" lon="-0.36132">
        <ele>226.5</ele>
        <time>2012-10-28T10:53:37Z</time>
      </trkpt>
      <trkpt lat="48.25145" lon="-0.36124">
        <ele>227.5</ele>
        <time>2012-10-28T10:53:43Z</time>
      </trkpt>
      <trkpt lat="48.25148" lon="-0.36118">
        <ele>227.5</ele>
        <time>2012-10-28T10:53:47Z</time>
      </trkpt>
      <trkpt lat="48.25151" lon="-0.36107">
        <ele>228</ele>
        <time>2012-10-28T10:53:53Z</time>
      </trkpt>
      <trkpt lat="48.25153" lon="-0.36104">
        <ele>228</ele>
        <time>2012-10-28T10:53:55Z</time>
      </trkpt>
      <trkpt lat="48.25156" lon="-0.36098">
        <ele>228.5</ele>
        <time>2012-10-28T10:53:59Z</time>
      </trkpt>
      <trkpt lat="48.25161" lon="-0.36092">
        <ele>228.5</ele>
        <time>2012-10-28T10:54:05Z</time>
      </trkpt>
      <trkpt lat="48.25164" lon="-0.3609">
        <ele>228.5</ele>
        <time>2012-10-28T10:54:07Z</time>
      </trkpt>
      <trkpt lat="48.25173" lon="-0.36085">
        <ele>229</ele>
        <time>2012-10-28T10:54:13Z</time>
      </trkpt>
      <trkpt lat="48.25183" lon="-0.36066">
        <ele>229.5</ele>
        <time>2012-10-28T10:54:23Z</time>
      </trkpt>
      <trkpt lat="48.25193" lon="-0.36052">
        <ele>230</ele>
        <time>2012-10-28T10:54:35Z</time>
      </trkpt>
      <trkpt lat="48.25201" lon="-0.36036">
        <ele>231.5</ele>
        <time>2012-10-28T10:54:47Z</time>
      </trkpt>
      <trkpt lat="48.25209" lon="-0.36023">
        <ele>231.5</ele>
        <time>2012-10-28T10:54:55Z</time>
      </trkpt>
      <trkpt lat="48.25215" lon="-0.36018">
        <ele>231.5</ele>
        <time>2012-10-28T10:55:01Z</time>
      </trkpt>
      <trkpt lat="48.25225" lon="-0.36001">
        <ele>231.5</ele>
        <time>2012-10-28T10:55:13Z</time>
      </trkpt>
      <trkpt lat="48.25227" lon="-0.35984">
        <ele>231.5</ele>
        <time>2012-10-28T10:55:23Z</time>
      </trkpt>
      <trkpt lat="48.25228" lon="-0.35979">
        <ele>231.5</ele>
        <time>2012-10-28T10:55:27Z</time>
      </trkpt>
      <trkpt lat="48.25236" lon="-0.35962">
        <ele>232</ele>
        <time>2012-10-28T10:55:43Z</time>
      </trkpt>
      <trkpt lat="48.25236" lon="-0.35962">
        <ele>201.9</ele>
        <time>2012-10-28T10:55:50Z</time>
      </trkpt>
    </trkseg>
  </trk>
</gpx>